Wetterdaten: Samstag, 22.03.2014
Datum Zeit Temp. Aussen +5cm Feuchte Auss Luftdruck Regen Sonnenschein Regendauer UV Solar Windben
22.03.2014 00:00 6,0 C 4,4 C 87 % 1007,8 hPa 0,0 l/m 0 min 0 min 0,0 UV-I 0 W/m 0,0 km/h (0 Bft)
22.03.2014 00:02 6,0 C 4,4 C 87 % 1007,8 hPa 0,0 l/m 0 min 0 min 0,0 UV-I 0 W/m 2,6 km/h (1 Bft)
22.03.2014 00:06 5,9 C 4,4 C 87 % 1007,8 hPa 0,0 l/m 0 min 0 min 0,0 UV-I 0 W/m 0,0 km/h (0 Bft)
22.03.2014 00:08 5,9 C 4,4 C 87 % 1007,7 hPa 0,0 l/m 0 min 0 min 0,0 UV-I 0 W/m 0,0 km/h (0 Bft)
22.03.2014 00:10 5,9 C 4,4 C 87 % 1007,7 hPa 0,0 l/m 0 min 0 min 0,0 UV-I 0 W/m 0,0 km/h (0 Bft)
22.03.2014 00:12 5,9 C 4,4 C 87 % 1007,7 hPa 0,0 l/m 0 min 0 min 0,0 UV-I 0 W/m 0,0 km/h (0 Bft)
22.03.2014 00:14 5,9 C 4,4 C 87 % 1007,7 hPa 0,0 l/m 0 min 0 min 0,0 UV-I 0 W/m 0,0 km/h (0 Bft)
22.03.2014 00:16 5,9 C 4,4 C 87 % 1007,6 hPa 0,0 l/m 0 min 0 min 0,0 UV-I 0 W/m 0,0 km/h (0 Bft)
22.03.2014 00:18 5,9 C 4,4 C 87 % 1007,6 hPa 0,0 l/m 0 min 0 min 0,0 UV-I 0 W/m 0,0 km/h (0 Bft)
22.03.2014 00:20 5,9 C 4,4 C 87 % 1007,6 hPa 0,0 l/m 0 min 0 min 0,0 UV-I 0 W/m 0,0 km/h (0 Bft)
22.03.2014 00:22 5,9 C 4,4 C 87 % 1007,6 hPa 0,0 l/m 0 min 0 min 0,0 UV-I 0 W/m 0,0 km/h (0 Bft)
22.03.2014 00:24 5,9 C 4,4 C 86 % 1007,6 hPa 0,0 l/m 0 min 0 min 0,0 UV-I 0 W/m 0,0 km/h (0 Bft)
22.03.2014 00:26 5,9 C 4,4 C 86 % 1007,5 hPa 0,0 l/m 0 min 0 min 0,0 UV-I 0 W/m 0,0 km/h (0 Bft)
22.03.2014 00:28 5,9 C 4,4 C 86 % 1007,5 hPa 0,0 l/m 0 min 0 min 0,0 UV-I 0 W/m 0,0 km/h (0 Bft)
22.03.2014 00:30 5,9 C 4,4 C 86 % 1007,4 hPa 0,0 l/m 0 min 0 min 0,0 UV-I 0 W/m 0,0 km/h (0 Bft)
22.03.2014 00:32 5,9 C 4,4 C 86 % 1007,3 hPa 0,0 l/m 0 min 0 min 0,0 UV-I 0 W/m 0,0 km/h (0 Bft)
22.03.2014 00:34 5,9 C 4,4 C 86 % 1007,3 hPa 0,0 l/m 0 min 0 min 0,0 UV-I 0 W/m 0,0 km/h (0 Bft)
22.03.2014 00:36 5,9 C 4,4 C 86 % 1007,3 hPa 0,0 l/m 0 min 0 min 0,0 UV-I 0 W/m 0,0 km/h (0 Bft)
22.03.2014 00:38 5,9 C 4,4 C 86 % 1007,3 hPa 0,0 l/m 0 min 0 min 0,0 UV-I 0 W/m 0,0 km/h (0 Bft)
22.03.2014 00:40 5,9 C 4,4 C 86 % 1007,2 hPa 0,0 l/m 0 min 0 min 0,0 UV-I 0 W/m 0,0 km/h (0 Bft)
22.03.2014 00:42 5,9 C 4,4 C 86 % 1007,2 hPa 0,0 l/m 0 min 0 min 0,0 UV-I 0 W/m 0,0 km/h (0 Bft)
22.03.2014 00:44 5,9 C 4,4 C 86 % 1007,2 hPa 0,0 l/m 0 min 0 min 0,0 UV-I 0 W/m 2,6 km/h (1 Bft)
22.03.2014 00:46 5,9 C 4,4 C 86 % 1007,2 hPa 0,0 l/m 0 min 0 min 0,0 UV-I 0 W/m 0,0 km/h (0 Bft)
22.03.2014 00:48 5,9 C 4,4 C 86 % 1007,2 hPa 0,0 l/m 0 min 0 min 0,0 UV-I 0 W/m 2,6 km/h (1 Bft)
22.03.2014 00:50 5,9 C 5,0 C 86 % 1007,2 hPa 0,0 l/m 0 min 0 min 0,0 UV-I 0 W/m 0,0 km/h (0 Bft)
22.03.2014 00:52 5,9 C 5,0 C 86 % 1007,2 hPa 0,0 l/m 0 min 0 min 0,0 UV-I 0 W/m 0,0 km/h (0 Bft)
22.03.2014 00:54 5,9 C 5,0 C 86 % 1007,2 hPa 0,0 l/m 0 min 0 min 0,0 UV-I 0 W/m 5,1 km/h (1 Bft)
22.03.2014 00:56 5,9 C 5,0 C 86 % 1007,2 hPa 0,0 l/m 0 min 0 min 0,0 UV-I 0 W/m 2,6 km/h (1 Bft)
22.03.2014 00:58 5,9 C 5,0 C 86 % 1007,1 hPa 0,0 l/m 0 min 0 min 0,0 UV-I 0 W/m 7,7 km/h (2 Bft)
22.03.2014 01:00 5,9 C 5,0 C 86 % 1007,1 hPa 0,0 l/m 0 min 0 min 0,0 UV-I 0 W/m 12,9 km/h (3 Bft)
22.03.2014 01:03 5,9 C 5,0 C 86 % 1006,9 hPa 0,0 l/m 0 min 0 min 0,0 UV-I 0 W/m 0,0 km/h (0 Bft)
22.03.2014 01:04 5,9 C 5,0 C 86 % 1006,9 hPa 0,0 l/m 0 min 0 min 0,0 UV-I 0 W/m 0,0 km/h (0 Bft)
22.03.2014 01:06 5,9 C 5,0 C 86 % 1006,8 hPa 0,0 l/m 0 min 0 min 0,0 UV-I 0 W/m 7,7 km/h (2 Bft)
22.03.2014 01:08 5,9 C 5,0 C 86 % 1006,8 hPa 0,0 l/m 0 min 0 min 0,0 UV-I 0 W/m 2,6 km/h (1 Bft)
22.03.2014 01:10 5,9 C 5,0 C 86 % 1006,9 hPa 0,0 l/m 0 min 0 min 0,0 UV-I 0 W/m 7,7 km/h (2 Bft)
22.03.2014 01:12 5,9 C 5,0 C 86 % 1006,8 hPa 0,0 l/m 0 min 0 min 0,0 UV-I 0 W/m 0,0 km/h (0 Bft)
22.03.2014 01:14 5,9 C 5,0 C 87 % 1006,8 hPa 0,0 l/m 0 min 0 min 0,0 UV-I 0 W/m 7,7 km/h (2 Bft)
22.03.2014 01:16 5,9 C 5,0 C 87 % 1006,8 hPa 0,0 l/m 0 min 0 min 0,0 UV-I 0 W/m 5,1 km/h (1 Bft)
22.03.2014 01:18 5,9 C 5,0 C 87 % 1006,7 hPa 0,0 l/m 0 min 0 min 0,0 UV-I 0 W/m 5,1 km/h (1 Bft)
22.03.2014 01:20 5,9 C 5,0 C 87 % 1006,6 hPa 0,0 l/m 0 min 0 min 0,0 UV-I 0 W/m 0,0 km/h (0 Bft)
22.03.2014 01:22 5,9 C 5,0 C 87 % 1006,6 hPa 0,0 l/m 0 min 0 min 0,0 UV-I 0 W/m 0,0 km/h (0 Bft)
22.03.2014 01:24 5,9 C 5,0 C 86 % 1006,6 hPa 0,0 l/m 0 min 0 min 0,0 UV-I 0 W/m 5,1 km/h (1 Bft)
22.03.2014 01:26 5,9 C 5,0 C 86 % 1006,6 hPa 0,0 l/m 0 min 0 min 0,0 UV-I 0 W/m 5,1 km/h (1 Bft)
22.03.2014 01:28 5,9 C 5,0 C 86 % 1006,7 hPa 0,0 l/m 0 min 0 min 0,0 UV-I 0 W/m 0,0 km/h (0 Bft)
22.03.2014 01:30 5,9 C 5,0 C 86 % 1006,6 hPa 0,0 l/m 0 min 0 min 0,0 UV-I 0 W/m 0,0 km/h (0 Bft)
22.03.2014 01:32 5,9 C 5,0 C 86 % 1006,7 hPa 0,0 l/m 0 min 0 min 0,0 UV-I 0 W/m 0,0 km/h (0 Bft)
22.03.2014 01:34 5,9 C 5,0 C 87 % 1006,6 hPa 0,0 l/m 0 min 0 min 0,0 UV-I 0 W/m 2,6 km/h (1 Bft)
22.03.2014 01:36 5,9 C 5,0 C 87 % 1006,5 hPa 0,0 l/m 0 min 0 min 0,0 UV-I 0 W/m 0,0 km/h (0 Bft)
22.03.2014 01:38 5,8 C 5,0 C 87 % 1006,5 hPa 0,0 l/m 0 min 0 min 0,0 UV-I 0 W/m 0,0 km/h (0 Bft)
22.03.2014 01:40 5,8 C 5,0 C 87 % 1006,5 hPa 0,0 l/m 0 min 0 min 0,0 UV-I 0 W/m 0,0 km/h (0 Bft)
22.03.2014 01:42 5,8 C 5,0 C 87 % 1006,6 hPa 0,0 l/m 0 min 0 min 0,0 UV-I 0 W/m 0,0 km/h (0 Bft)
22.03.2014 01:44 5,8 C 5,0 C 87 % 1006,5 hPa 0,0 l/m 0 min 0 min 0,0 UV-I 0 W/m 0,0 km/h (0 Bft)
22.03.2014 01:46 5,8 C 5,0 C 87 % 1006,5 hPa 0,0 l/m 0 min 0 min 0,0 UV-I 0 W/m 0,0 km/h (0 Bft)
22.03.2014 01:48 5,8 C 5,0 C 87 % 1006,4 hPa 0,0 l/m 0 min 0 min 0,0 UV-I 0 W/m 0,0 km/h (0 Bft)
22.03.2014 01:50 5,8 C 5,0 C 87 % 1006,3 hPa 0,0 l/m 0 min 0 min 0,0 UV-I 0 W/m 0,0 km/h (0 Bft)
22.03.2014 01:52 5,8 C 5,0 C 87 % 1006,2 hPa 0,0 l/m 0 min 0 min 0,0 UV-I 0 W/m 0,0 km/h (0 Bft)
22.03.2014 01:54 5,9 C 5,0 C 87 % 1006,2 hPa 0,0 l/m 0 min 0 min 0,0 UV-I 0 W/m 0,0 km/h (0 Bft)
22.03.2014 01:56 5,9 C 5,0 C 87 % 1006,2 hPa 0,0 l/m 0 min 0 min 0,0 UV-I 0 W/m 0,0 km/h (0 Bft)
22.03.2014 01:58 5,9 C 5,0 C 87 % 1006,2 hPa 0,0 l/m 0 min 0 min 0,0 UV-I 0 W/m 10,3 km/h (2 Bft)
22.03.2014 02:00 5,9 C 5,0 C 87 % 1006,2 hPa 0,0 l/m 0 min 2 min 0,0 UV-I 0 W/m 10,3 km/h (2 Bft)
22.03.2014 02:02 5,9 C 4,4 C 87 % 1006,1 hPa 0,0 l/m 0 min 2 min 0,0 UV-I 0 W/m 7,7 km/h (2 Bft)
22.03.2014 02:06 5,9 C 4,4 C 87 % 1006,2 hPa 0,0 l/m 0 min 2 min 0,0 UV-I 0 W/m 10,3 km/h (2 Bft)
22.03.2014 02:08 5,9 C 4,4 C 88 % 1006,2 hPa 0,0 l/m 0 min 2 min 0,0 UV-I 0 W/m 5,1 km/h (1 Bft)
22.03.2014 02:10 5,9 C 4,4 C 88 % 1006,1 hPa 0,0 l/m 0 min 2 min 0,0 UV-I 0 W/m 7,7 km/h (2 Bft)
22.03.2014 02:12 5,9 C 4,4 C 88 % 1006,2 hPa 0,0 l/m 0 min 2 min 0,0 UV-I 0 W/m 10,3 km/h (2 Bft)
22.03.2014 02:14 5,9 C 4,4 C 88 % 1006,2 hPa 0,0 l/m 0 min 2 min 0,0 UV-I 0 W/m 7,7 km/h (2 Bft)
22.03.2014 02:16 5,8 C 4,4 C 88 % 1006,1 hPa 0,0 l/m 0 min 2 min 0,0 UV-I 0 W/m 7,7 km/h (2 Bft)
22.03.2014 02:18 5,8 C 4,4 C 89 % 1006,1 hPa 0,2 l/m 0 min 2 min 0,0 UV-I 0 W/m 7,7 km/h (2 Bft)
22.03.2014 02:20 5,8 C 4,4 C 89 % 1005,9 hPa 0,0 l/m 0 min 2 min 0,0 UV-I 0 W/m 2,6 km/h (1 Bft)
22.03.2014 02:22 5,8 C 4,4 C 89 % 1005,8 hPa 0,0 l/m 0 min 2 min 0,0 UV-I 0 W/m 2,6 km/h (1 Bft)
22.03.2014 02:24 5,7 C 4,4 C 90 % 1005,6 hPa 0,0 l/m 0 min 2 min 0,0 UV-I 0 W/m 2,6 km/h (1 Bft)
22.03.2014 02:26 5,7 C 4,4 C 90 % 1005,6 hPa 0,0 l/m 0 min 0 min 0,0 UV-I 0 W/m 0,0 km/h (0 Bft)
22.03.2014 02:28 5,7 C 4,4 C 90 % 1005,5 hPa 0,0 l/m 0 min 0 min 0,0 UV-I 0 W/m 0,0 km/h (0 Bft)
22.03.2014 02:30 5,7 C 4,4 C 90 % 1005,5 hPa 0,0 l/m 0 min 0 min 0,0 UV-I 0 W/m 0,0 km/h (0 Bft)
22.03.2014 02:32 5,6 C 4,4 C 91 % 1005,6 hPa 0,0 l/m 0 min 0 min 0,0 UV-I 0 W/m 0,0 km/h (0 Bft)
22.03.2014 02:34 5,6 C 4,4 C 91 % 1005,5 hPa 0,0 l/m 0 min 0 min 0,0 UV-I 0 W/m 0,0 km/h (0 Bft)
22.03.2014 02:36 5,6 C 4,4 C 91 % 1005,4 hPa 0,0 l/m 0 min 0 min 0,0 UV-I 0 W/m 0,0 km/h (0 Bft)
22.03.2014 02:38 5,6 C 4,4 C 92 % 1005,4 hPa 0,0 l/m 0 min 0 min 0,0 UV-I 0 W/m 0,0 km/h (0 Bft)
22.03.2014 02:40 5,6 C 4,4 C 92 % 1005,3 hPa 0,0 l/m 0 min 0 min 0,0 UV-I 0 W/m 7,7 km/h (2 Bft)
22.03.2014 02:42 5,5 C 3,9 C 92 % 1005,4 hPa 0,0 l/m 0 min 0 min 0,0 UV-I 0 W/m 0,0 km/h (0 Bft)
22.03.2014 02:44 5,5 C 3,9 C 92 % 1005,4 hPa 0,0 l/m 0 min 0 min 0,0 UV-I 0 W/m 0,0 km/h (0 Bft)
22.03.2014 02:46 5,4 C 3,9 C 92 % 1005,3 hPa 0,0 l/m 0 min 0 min 0,0 UV-I 0 W/m 0,0 km/h (0 Bft)
22.03.2014 02:48 5,4 C 3,9 C 92 % 1005,2 hPa 0,0 l/m 0 min 0 min 0,0 UV-I 0 W/m 7,7 km/h (2 Bft)
22.03.2014 02:50 5,4 C 3,9 C 92 % 1005,2 hPa 0,0 l/m 0 min 0 min 0,0 UV-I 0 W/m 7,7 km/h (2 Bft)
22.03.2014 02:52 5,4 C 3,9 C 92 % 1005,1 hPa 0,0 l/m 0 min 0 min 0,0 UV-I 0 W/m 5,1 km/h (1 Bft)
22.03.2014 02:54 5,4 C 3,9 C 93 % 1005,0 hPa 0,0 l/m 0 min 0 min 0,0 UV-I 0 W/m 0,0 km/h (0 Bft)
22.03.2014 02:56 5,4 C 3,9 C 93 % 1005,0 hPa 0,0 l/m 0 min 0 min 0,0 UV-I 0 W/m 0,0 km/h (0 Bft)
22.03.2014 02:58 5,3 C 3,9 C 93 % 1005,0 hPa 0,0 l/m 0 min 0 min 0,0 UV-I 0 W/m 5,1 km/h (1 Bft)
22.03.2014 03:00 5,3 C 3,9 C 93 % 1004,9 hPa 0,0 l/m 0 min 0 min 0,0 UV-I 0 W/m 0,0 km/h (0 Bft)
22.03.2014 03:02 5,3 C 3,9 C 93 % 1004,9 hPa 0,0 l/m 0 min 0 min 0,0 UV-I 0 W/m 0,0 km/h (0 Bft)
22.03.2014 03:06 5,3 C 3,9 C 93 % 1004,8 hPa 0,0 l/m 0 min 0 min 0,0 UV-I 0 W/m 0,0 km/h (0 Bft)
22.03.2014 03:08 5,3 C 4,4 C 94 % 1004,8 hPa 0,0 l/m 0 min 2 min 0,0 UV-I 0 W/m 0,0 km/h (0 Bft)
22.03.2014 03:10 5,3 C 4,4 C 93 % 1004,8 hPa 0,0 l/m 0 min 2 min 0,0 UV-I 0 W/m 0,0 km/h (0 Bft)
22.03.2014 03:12 5,4 C 4,4 C 94 % 1004,8 hPa 0,0 l/m 0 min 0 min 0,0 UV-I 0 W/m 0,0 km/h (0 Bft)
22.03.2014 03:14 5,4 C 4,4 C 94 % 1004,8 hPa 0,0 l/m 0 min 0 min 0,0 UV-I 0 W/m 0,0 km/h (0 Bft)
22.03.2014 03:16 5,4 C 4,4 C 94 % 1004,8 hPa 0,0 l/m 0 min 0 min 0,0 UV-I 0 W/m 0,0 km/h (0 Bft)
22.03.2014 03:18 5,4 C 4,4 C 94 % 1004,8 hPa 0,0 l/m 0 min 0 min 0,0 UV-I 0 W/m 0,0 km/h (0 Bft)
22.03.2014 03:20 5,4 C 4,4 C 94 % 1004,8 hPa 0,0 l/m 0 min 0 min 0,0 UV-I 0 W/m 0,0 km/h (0 Bft)
22.03.2014 03:22 5,4 C 4,4 C 94 % 1004,8 hPa 0,0 l/m 0 min 0 min 0,0 UV-I 0 W/m 0,0 km/h (0 Bft)
22.03.2014 03:24 5,4 C 4,4 C 94 % 1004,8 hPa 0,0 l/m 0 min 0 min 0,0 UV-I 0 W/m 0,0 km/h (0 Bft)
22.03.2014 03:26 5,4 C 4,4 C 94 % 1004,7 hPa 0,0 l/m 0 min 0 min 0,0 UV-I 0 W/m 0,0 km/h (0 Bft)
22.03.2014 03:28 5,4 C 4,4 C 94 % 1004,7 hPa 0,0 l/m 0 min 0 min 0,0 UV-I 0 W/m 0,0 km/h (0 Bft)
22.03.2014 03:30 5,5 C 4,4 C 94 % 1004,6 hPa 0,0 l/m 0 min 0 min 0,0 UV-I 0 W/m 0,0 km/h (0 Bft)
22.03.2014 03:32 5,4 C 4,4 C 94 % 1004,4 hPa 0,0 l/m 0 min 0 min 0,0 UV-I 0 W/m 0,0 km/h (0 Bft)
22.03.2014 03:34 5,4 C 4,4 C 94 % 1004,5 hPa 0,0 l/m 0 min 0 min 0,0 UV-I 0 W/m 0,0 km/h (0 Bft)
22.03.2014 03:36 5,4 C 3,9 C 94 % 1004,4 hPa 0,0 l/m 0 min 0 min 0,0 UV-I 0 W/m 0,0 km/h (0 Bft)
22.03.2014 03:38 5,4 C 3,9 C 94 % 1004,4 hPa 0,0 l/m 0 min 0 min 0,0 UV-I 0 W/m 0,0 km/h (0 Bft)
22.03.2014 03:40 5,4 C 3,9 C 94 % 1004,4 hPa 0,0 l/m 0 min 0 min 0,0 UV-I 0 W/m 0,0 km/h (0 Bft)
22.03.2014 03:42 5,4 C 3,9 C 94 % 1004,4 hPa 0,0 l/m 0 min 0 min 0,0 UV-I 0 W/m 0,0 km/h (0 Bft)
22.03.2014 03:44 5,4 C 3,9 C 94 % 1004,4 hPa 0,0 l/m 0 min 0 min 0,0 UV-I 0 W/m 0,0 km/h (0 Bft)
22.03.2014 03:46 5,3 C 3,9 C 94 % 1004,3 hPa 0,0 l/m 0 min 0 min 0,0 UV-I 0 W/m 0,0 km/h (0 Bft)
22.03.2014 03:48 5,3 C 3,9 C 94 % 1004,2 hPa 0,0 l/m 0 min 0 min 0,0 UV-I 0 W/m 0,0 km/h (0 Bft)
22.03.2014 03:50 5,3 C 3,9 C 94 % 1004,1 hPa 0,0 l/m 0 min 0 min 0,0 UV-I 0 W/m 0,0 km/h (0 Bft)
22.03.2014 03:52 5,3 C 3,9 C 94 % 1004,0 hPa 0,0 l/m 0 min 0 min 0,0 UV-I 0 W/m 0,0 km/h (0 Bft)
22.03.2014 03:54 5,3 C 3,9 C 94 % 1004,0 hPa 0,0 l/m 0 min 0 min 0,0 UV-I 0 W/m 0,0 km/h (0 Bft)
22.03.2014 03:56 5,2 C 3,9 C 94 % 1003,9 hPa 0,0 l/m 0 min 0 min 0,0 UV-I 0 W/m 0,0 km/h (0 Bft)
22.03.2014 03:58 5,2 C 3,9 C 94 % 1003,9 hPa 0,0 l/m 0 min 0 min 0,0 UV-I 0 W/m 0,0 km/h (0 Bft)
22.03.2014 04:00 5,2 C 3,9 C 94 % 1003,9 hPa 0,0 l/m 0 min 0 min 0,0 UV-I 0 W/m 0,0 km/h (0 Bft)
22.03.2014 04:02 5,2 C 3,9 C 94 % 1003,9 hPa 0,0 l/m 0 min 0 min 0,0 UV-I 0 W/m 0,0 km/h (0 Bft)
22.03.2014 04:06 5,1 C 3,9 C 94 % 1004,0 hPa 0,0 l/m 0 min 0 min 0,0 UV-I 0 W/m 0,0 km/h (0 Bft)
22.03.2014 04:08 5,1 C 3,9 C 94 % 1003,9 hPa 0,0 l/m 0 min 0 min 0,0 UV-I 0 W/m 0,0 km/h (0 Bft)
22.03.2014 04:10 5,1 C 3,9 C 94 % 1003,9 hPa 0,0 l/m 0 min 0 min 0,0 UV-I 0 W/m 0,0 km/h (0 Bft)
22.03.2014 04:12 5,1 C 3,3 C 94 % 1003,9 hPa 0,0 l/m 0 min 0 min 0,0 UV-I 0 W/m 2,6 km/h (1 Bft)
22.03.2014 04:14 5,1 C 3,9 C 95 % 1003,9 hPa 0,0 l/m 0 min 0 min 0,0 UV-I 0 W/m 0,0 km/h (0 Bft)
22.03.2014 04:16 5,1 C 3,3 C 95 % 1003,9 hPa 0,0 l/m 0 min 0 min 0,0 UV-I 0 W/m 5,1 km/h (1 Bft)
22.03.2014 04:18 5,0 C 3,3 C 95 % 1003,9 hPa 0,0 l/m 0 min 0 min 0,0 UV-I 0 W/m 2,6 km/h (1 Bft)
22.03.2014 04:20 5,0 C 3,3 C 95 % 1003,9 hPa 0,0 l/m 0 min 0 min 0,0 UV-I 0 W/m 10,3 km/h (2 Bft)
22.03.2014 04:22 5,0 C 3,9 C 95 % 1003,8 hPa 0,0 l/m 0 min 0 min 0,0 UV-I 0 W/m 7,7 km/h (2 Bft)
22.03.2014 04:24 5,0 C 3,9 C 95 % 1003,8 hPa 0,0 l/m 0 min 0 min 0,0 UV-I 0 W/m 0,0 km/h (0 Bft)
22.03.2014 04:26 5,0 C 3,9 C 95 % 1003,7 hPa 0,0 l/m 0 min 0 min 0,0 UV-I 0 W/m 0,0 km/h (0 Bft)
22.03.2014 04:28 5,0 C 3,9 C 95 % 1003,7 hPa 0,0 l/m 0 min 0 min 0,0 UV-I 0 W/m 0,0 km/h (0 Bft)
22.03.2014 04:30 5,0 C 3,3 C 95 % 1003,7 hPa 0,0 l/m 0 min 0 min 0,0 UV-I 0 W/m 0,0 km/h (0 Bft)
22.03.2014 04:32 4,9 C 3,3 C 95 % 1003,6 hPa 0,0 l/m 0 min 0 min 0,0 UV-I 0 W/m 0,0 km/h (0 Bft)
22.03.2014 04:34 4,9 C 3,3 C 95 % 1003,5 hPa 0,0 l/m 0 min 0 min 0,0 UV-I 0 W/m 0,0 km/h (0 Bft)
22.03.2014 04:36 4,9 C 3,3 C 95 % 1003,5 hPa 0,0 l/m 0 min 0 min 0,0 UV-I 0 W/m 0,0 km/h (0 Bft)
22.03.2014 04:38 4,9 C 3,3 C 95 % 1003,5 hPa 0,0 l/m 0 min 0 min 0,0 UV-I 0 W/m 0,0 km/h (0 Bft)
22.03.2014 04:40 4,9 C 3,3 C 95 % 1003,5 hPa 0,0 l/m 0 min 0 min 0,0 UV-I 0 W/m 7,7 km/h (2 Bft)
22.03.2014 04:42 4,9 C 3,3 C 95 % 1003,4 hPa 0,0 l/m 0 min 0 min 0,0 UV-I 0 W/m 7,7 km/h (2 Bft)
22.03.2014 04:44 4,9 C 3,3 C 95 % 1003,3 hPa 0,0 l/m 0 min 0 min 0,0 UV-I 0 W/m 0,0 km/h (0 Bft)
22.03.2014 04:46 4,9 C 3,3 C 95 % 1003,3 hPa 0,0 l/m 0 min 0 min 0,0 UV-I 0 W/m 2,6 km/h (1 Bft)
22.03.2014 04:48 4,9 C 3,3 C 95 % 1003,3 hPa 0,0 l/m 0 min 0 min 0,0 UV-I 0 W/m 7,7 km/h (2 Bft)
22.03.2014 04:50 4,8 C 3,3 C 95 % 1003,2 hPa 0,0 l/m 0 min 0 min 0,0 UV-I 0 W/m 7,7 km/h (2 Bft)
22.03.2014 04:52 4,8 C 3,3 C 95 % 1003,1 hPa 0,0 l/m 0 min 0 min 0,0 UV-I 0 W/m 5,1 km/h (1 Bft)
22.03.2014 04:54 4,8 C 3,3 C 95 % 1003,1 hPa 0,0 l/m 0 min 0 min 0,0 UV-I 0 W/m 5,1 km/h (1 Bft)
22.03.2014 04:56 4,8 C 3,3 C 95 % 1003,1 hPa 0,0 l/m 0 min 0 min 0,0 UV-I 0 W/m 0,0 km/h (0 Bft)
22.03.2014 04:58 4,8 C 3,3 C 95 % 1003,0 hPa 0,0 l/m 0 min 0 min 0,0 UV-I 0 W/m 5,1 km/h (1 Bft)
22.03.2014 05:00 4,8 C 3,3 C 95 % 1003,1 hPa 0,0 l/m 0 min 0 min 0,0 UV-I 0 W/m 10,3 km/h (2 Bft)
22.03.2014 05:02 4,8 C 3,3 C 95 % 1003,0 hPa 0,0 l/m 0 min 0 min 0,0 UV-I 0 W/m 7,7 km/h (2 Bft)
22.03.2014 05:06 4,8 C 3,3 C 95 % 1003,1 hPa 0,0 l/m 0 min 0 min 0,0 UV-I 0 W/m 7,7 km/h (2 Bft)
22.03.2014 05:08 4,8 C 3,3 C 95 % 1003,1 hPa 0,0 l/m 0 min 0 min 0,0 UV-I 0 W/m 7,7 km/h (2 Bft)
22.03.2014 05:10 4,8 C 3,3 C 95 % 1003,1 hPa 0,0 l/m 0 min 0 min 0,0 UV-I 0 W/m 10,3 km/h (2 Bft)
22.03.2014 05:12 4,8 C 3,3 C 95 % 1003,0 hPa 0,0 l/m 0 min 0 min 0,0 UV-I 0 W/m 10,3 km/h (2 Bft)
22.03.2014 05:14 4,9 C 3,3 C 95 % 1003,1 hPa 0,0 l/m 0 min 0 min 0,0 UV-I 0 W/m 5,1 km/h (1 Bft)
22.03.2014 05:16 4,9 C 3,3 C 95 % 1003,0 hPa 0,0 l/m 0 min 0 min 0,0 UV-I 0 W/m 12,9 km/h (3 Bft)
22.03.2014 05:18 4,9 C 3,9 C 95 % 1003,1 hPa 0,0 l/m 0 min 0 min 0,0 UV-I 0 W/m 7,7 km/h (2 Bft)
22.03.2014 05:20 4,9 C 3,9 C 95 % 1003,1 hPa 0,0 l/m 0 min 0 min 0,0 UV-I 0 W/m 7,7 km/h (2 Bft)
22.03.2014 05:22 4,9 C 3,9 C 95 % 1003,1 hPa 0,0 l/m 0 min 0 min 0,0 UV-I 0 W/m 10,3 km/h (2 Bft)
22.03.2014 05:24 5,0 C 3,9 C 95 % 1003,1 hPa 0,0 l/m 0 min 0 min 0,0 UV-I 0 W/m 12,9 km/h (3 Bft)
22.03.2014 05:26 5,1 C 3,9 C 95 % 1003,0 hPa 0,0 l/m 0 min 0 min 0,0 UV-I 0 W/m 10,3 km/h (2 Bft)
22.03.2014 05:28 5,1 C 3,9 C 95 % 1003,0 hPa 0,0 l/m 0 min 0 min 0,0 UV-I 0 W/m 12,9 km/h (3 Bft)
22.03.2014 05:30 5,2 C 3,9 C 96 % 1003,1 hPa 0,0 l/m 0 min 0 min 0,0 UV-I 0 W/m 7,7 km/h (2 Bft)
22.03.2014 05:32 5,2 C 3,9 C 96 % 1003,1 hPa 0,0 l/m 0 min 0 min 0,0 UV-I 0 W/m 7,7 km/h (2 Bft)
22.03.2014 05:34 5,2 C 3,9 C 96 % 1003,1 hPa 0,0 l/m 0 min 0 min 0,0 UV-I 0 W/m 10,3 km/h (2 Bft)
22.03.2014 05:36 5,3 C 3,9 C 96 % 1003,0 hPa 0,0 l/m 0 min 0 min 0,0 UV-I 0 W/m 10,3 km/h (2 Bft)
22.03.2014 05:38 5,3 C 4,4 C 95 % 1003,0 hPa 0,0 l/m 0 min 0 min 0,0 UV-I 0 W/m 7,7 km/h (2 Bft)
22.03.2014 05:40 5,3 C 4,4 C 95 % 1002,9 hPa 0,0 l/m 0 min 0 min 0,0 UV-I 0 W/m 10,3 km/h (2 Bft)
22.03.2014 05:42 5,4 C 4,4 C 95 % 1003,0 hPa 0,0 l/m 0 min 0 min 0,0 UV-I 0 W/m 12,9 km/h (3 Bft)
22.03.2014 05:44 5,4 C 4,4 C 95 % 1003,1 hPa 0,0 l/m 0 min 0 min 0,0 UV-I 0 W/m 15,4 km/h (3 Bft)
22.03.2014 05:46 5,4 C 3,9 C 95 % 1003,0 hPa 0,0 l/m 0 min 0 min 0,0 UV-I 0 W/m 10,3 km/h (2 Bft)
22.03.2014 05:48 5,4 C 3,9 C 95 % 1003,0 hPa 0,0 l/m 0 min 0 min 0,0 UV-I 0 W/m 5,1 km/h (1 Bft)
22.03.2014 05:50 5,4 C 3,9 C 95 % 1003,1 hPa 0,0 l/m 0 min 0 min 0,0 UV-I 0 W/m 7,7 km/h (2 Bft)
22.03.2014 05:52 5,4 C 3,9 C 95 % 1003,0 hPa 0,0 l/m 0 min 0 min 0,0 UV-I 0 W/m 7,7 km/h (2 Bft)
22.03.2014 05:54 5,5 C 3,9 C 95 % 1002,9 hPa 0,0 l/m 0 min 0 min 0,0 UV-I 0 W/m 7,7 km/h (2 Bft)
22.03.2014 05:56 5,5 C 3,9 C 95 % 1002,9 hPa 0,0 l/m 0 min 0 min 0,0 UV-I 0 W/m 7,7 km/h (2 Bft)
22.03.2014 05:58 5,5 C 3,9 C 95 % 1002,9 hPa 0,0 l/m 0 min 0 min 0,0 UV-I 0 W/m 12,9 km/h (3 Bft)
22.03.2014 06:00 5,5 C 3,9 C 95 % 1003,0 hPa 0,0 l/m 0 min 0 min 0,0 UV-I 0 W/m 7,7 km/h (2 Bft)
22.03.2014 06:02 5,5 C 3,9 C 95 % 1003,0 hPa 0,0 l/m 0 min 0 min 0,0 UV-I 0 W/m 10,3 km/h (2 Bft)
22.03.2014 06:06 5,5 C 3,9 C 95 % 1003,0 hPa 0,0 l/m 0 min 0 min 0,0 UV-I 0 W/m 2,6 km/h (1 Bft)
22.03.2014 06:08 5,6 C 3,9 C 95 % 1003,0 hPa 0,0 l/m 0 min 0 min 0,0 UV-I 0 W/m 7,7 km/h (2 Bft)
22.03.2014 06:10 5,6 C 4,4 C 95 % 1003,0 hPa 0,0 l/m 0 min 0 min 0,0 UV-I 0 W/m 7,7 km/h (2 Bft)
22.03.2014 06:12 5,6 C 4,4 C 95 % 1002,9 hPa 0,0 l/m 0 min 0 min 0,0 UV-I 0 W/m 7,7 km/h (2 Bft)
22.03.2014 06:14 5,7 C 4,4 C 95 % 1003,0 hPa 0,0 l/m 0 min 0 min 0,0 UV-I 0 W/m 10,3 km/h (2 Bft)
22.03.2014 06:16 5,7 C 4,4 C 95 % 1003,0 hPa 0,0 l/m 0 min 0 min 0,0 UV-I 0 W/m 7,7 km/h (2 Bft)
22.03.2014 06:18 5,7 C 4,4 C 95 % 1003,0 hPa 0,0 l/m 0 min 0 min 0,0 UV-I 0 W/m 7,7 km/h (2 Bft)
22.03.2014 06:20 5,7 C 4,4 C 95 % 1003,0 hPa 0,0 l/m 0 min 0 min 0,0 UV-I 0 W/m 10,3 km/h (2 Bft)
22.03.2014 06:22 5,8 C 4,4 C 95 % 1003,0 hPa 0,0 l/m 0 min 0 min 0,0 UV-I 0 W/m 7,7 km/h (2 Bft)
22.03.2014 06:24 5,8 C 4,4 C 95 % 1002,9 hPa 0,0 l/m 0 min 0 min 0,0 UV-I 0 W/m 7,7 km/h (2 Bft)
22.03.2014 06:26 5,8 C 4,4 C 95 % 1002,9 hPa 0,0 l/m 0 min 0 min 0,0 UV-I 0 W/m 10,3 km/h (2 Bft)
22.03.2014 06:28 5,8 C 4,4 C 95 % 1002,9 hPa 0,0 l/m 0 min 0 min 0,0 UV-I 0 W/m 10,3 km/h (2 Bft)
22.03.2014 06:30 5,8 C 4,4 C 95 % 1002,8 hPa 0,0 l/m 0 min 0 min 0,0 UV-I 0 W/m 10,3 km/h (2 Bft)
22.03.2014 06:32 5,8 C 4,4 C 95 % 1002,8 hPa 0,0 l/m 0 min 0 min 0,0 UV-I 0 W/m 7,7 km/h (2 Bft)
22.03.2014 06:34 5,8 C 4,4 C 95 % 1002,8 hPa 0,0 l/m 0 min 0 min 0,0 UV-I 0 W/m 7,7 km/h (2 Bft)
22.03.2014 06:36 5,8 C 4,4 C 94 % 1002,9 hPa 0,0 l/m 0 min 0 min 0,0 UV-I 0 W/m 2,6 km/h (1 Bft)
22.03.2014 06:38 5,8 C 4,4 C 94 % 1002,8 hPa 0,0 l/m 0 min 0 min 0,0 UV-I 0 W/m 0,0 km/h (0 Bft)
22.03.2014 06:40 5,9 C 4,4 C 94 % 1002,8 hPa 0,0 l/m 0 min 0 min 0,0 UV-I 5 W/m 0,0 km/h (0 Bft)
22.03.2014 06:42 5,9 C 4,4 C 94 % 1002,8 hPa 0,0 l/m 0 min 0 min 0,0 UV-I 5 W/m 7,7 km/h (2 Bft)
22.03.2014 06:44 5,9 C 4,4 C 94 % 1002,8 hPa 0,0 l/m 0 min 0 min 0,0 UV-I 5 W/m 10,3 km/h (2 Bft)
22.03.2014 06:46 5,9 C 4,4 C 94 % 1002,9 hPa 0,0 l/m 0 min 0 min 0,0 UV-I 5 W/m 7,7 km/h (2 Bft)
22.03.2014 06:48 5,9 C 4,4 C 94 % 1002,8 hPa 0,0 l/m 0 min 0 min 0,0 UV-I 7 W/m 2,6 km/h (1 Bft)
22.03.2014 06:50 6,0 C 4,4 C 94 % 1002,8 hPa 0,0 l/m 0 min 0 min 0,0 UV-I 9 W/m 2,6 km/h (1 Bft)
22.03.2014 06:52 6,0 C 4,4 C 94 % 1002,7 hPa 0,0 l/m 0 min 0 min 0,0 UV-I 11 W/m 7,7 km/h (2 Bft)
22.03.2014 06:54 6,1 C 4,4 C 94 % 1002,7 hPa 0,0 l/m 0 min 0 min 0,0 UV-I 12 W/m 2,6 km/h (1 Bft)
22.03.2014 06:56 6,1 C 4,4 C 94 % 1002,7 hPa 0,0 l/m 0 min 0 min 0,0 UV-I 14 W/m 5,1 km/h (1 Bft)
22.03.2014 06:58 6,1 C 4,4 C 94 % 1002,7 hPa 0,0 l/m 0 min 0 min 0,0 UV-I 14 W/m 7,7 km/h (2 Bft)
22.03.2014 07:00 6,1 C 4,4 C 94 % 1002,8 hPa 0,0 l/m 0 min 0 min 0,0 UV-I 16 W/m 2,6 km/h (1 Bft)
22.03.2014 07:02 6,1 C 4,4 C 94 % 1002,7 hPa 0,0 l/m 0 min 0 min 0,0 UV-I 18 W/m 7,7 km/h (2 Bft)
22.03.2014 07:06 6,1 C 4,4 C 94 % 1002,8 hPa 0,0 l/m 0 min 0 min 0,0 UV-I 19 W/m 10,3 km/h (2 Bft)
22.03.2014 07:08 6,2 C 4,4 C 94 % 1002,8 hPa 0,0 l/m 0 min 0 min 0,0 UV-I 21 W/m 0,0 km/h (0 Bft)
22.03.2014 07:10 6,2 C 4,4 C 94 % 1002,8 hPa 0,0 l/m 0 min 0 min 0,0 UV-I 23 W/m 10,3 km/h (2 Bft)
22.03.2014 07:12 6,2 C 4,4 C 94 % 1002,8 hPa 0,0 l/m 0 min 0 min 0,0 UV-I 25 W/m 0,0 km/h (0 Bft)
22.03.2014 07:14 6,2 C 4,4 C 94 % 1002,8 hPa 0,0 l/m 0 min 0 min 0,0 UV-I 26 W/m 0,0 km/h (0 Bft)
22.03.2014 07:16 6,2 C 4,4 C 94 % 1002,7 hPa 0,0 l/m 0 min 0 min 0,0 UV-I 28 W/m 0,0 km/h (0 Bft)
22.03.2014 07:18 6,2 C 4,4 C 94 % 1002,7 hPa 0,0 l/m 0 min 0 min 0,0 UV-I 33 W/m 0,0 km/h (0 Bft)
22.03.2014 07:20 6,2 C 4,4 C 94 % 1002,7 hPa 0,0 l/m 0 min 0 min 0,0 UV-I 37 W/m 5,1 km/h (1 Bft)
22.03.2014 07:22 6,2 C 4,4 C 94 % 1002,7 hPa 0,0 l/m 0 min 0 min 0,0 UV-I 40 W/m 0,0 km/h (0 Bft)
22.03.2014 07:24 6,3 C 5,0 C 93 % 1002,7 hPa 0,0 l/m 0 min 0 min 0,0 UV-I 44 W/m 0,0 km/h (0 Bft)
22.03.2014 07:26 6,3 C 5,0 C 93 % 1002,6 hPa 0,0 l/m 0 min 0 min 0,0 UV-I 44 W/m 0,0 km/h (0 Bft)
22.03.2014 07:28 6,3 C 5,0 C 93 % 1002,6 hPa 0,0 l/m 0 min 0 min 0,0 UV-I 44 W/m 12,9 km/h (3 Bft)
22.03.2014 07:30 6,4 C 5,0 C 93 % 1002,6 hPa 0,0 l/m 0 min 0 min 0,0 UV-I 47 W/m 10,3 km/h (2 Bft)
22.03.2014 07:32 6,4 C 5,0 C 93 % 1002,6 hPa 0,0 l/m 0 min 0 min 0,0 UV-I 49 W/m 5,1 km/h (1 Bft)
22.03.2014 07:34 6,4 C 5,0 C 93 % 1002,6 hPa 0,0 l/m 0 min 0 min 0,0 UV-I 49 W/m 0,0 km/h (0 Bft)
22.03.2014 07:36 6,5 C 5,0 C 93 % 1002,5 hPa 0,0 l/m 0 min 0 min 0,0 UV-I 51 W/m 0,0 km/h (0 Bft)
22.03.2014 07:38 6,6 C 5,0 C 93 % 1002,6 hPa 0,0 l/m 0 min 0 min 0,0 UV-I 53 W/m 0,0 km/h (0 Bft)
22.03.2014 07:40 6,6 C 5,0 C 93 % 1002,5 hPa 0,0 l/m 0 min 0 min 0,0 UV-I 53 W/m 0,0 km/h (0 Bft)
22.03.2014 07:42 6,7 C 5,0 C 93 % 1002,5 hPa 0,0 l/m 0 min 0 min 0,0 UV-I 56 W/m 2,6 km/h (1 Bft)
22.03.2014 07:44 6,8 C 5,0 C 93 % 1002,5 hPa 0,0 l/m 0 min 0 min 0,0 UV-I 58 W/m 0,0 km/h (0 Bft)
22.03.2014 07:46 6,8 C 5,0 C 92 % 1002,5 hPa 0,0 l/m 0 min 0 min 0,0 UV-I 60 W/m 0,0 km/h (0 Bft)
22.03.2014 07:48 6,9 C 5,0 C 92 % 1002,5 hPa 0,0 l/m 0 min 0 min 0,0 UV-I 62 W/m 5,1 km/h (1 Bft)
22.03.2014 07:50 7,0 C 5,6 C 92 % 1002,5 hPa 0,0 l/m 0 min 0 min 0,0 UV-I 63 W/m 7,7 km/h (2 Bft)
22.03.2014 07:52 7,2 C 5,6 C 92 % 1002,4 hPa 0,0 l/m 0 min 0 min 0,0 UV-I 65 W/m 0,0 km/h (0 Bft)
22.03.2014 07:54 7,2 C 5,6 C 91 % 1002,4 hPa 0,0 l/m 0 min 0 min 0,0 UV-I 69 W/m 0,0 km/h (0 Bft)
22.03.2014 07:56 7,3 C 5,6 C 91 % 1002,4 hPa 0,0 l/m 0 min 0 min 0,0 UV-I 70 W/m 5,1 km/h (1 Bft)
22.03.2014 07:58 7,3 C 5,6 C 90 % 1002,4 hPa 0,0 l/m 0 min 0 min 0,0 UV-I 72 W/m 0,0 km/h (0 Bft)
22.03.2014 08:00 7,4 C 5,6 C 90 % 1002,5 hPa 0,0 l/m 0 min 0 min 0,0 UV-I 74 W/m 2,6 km/h (1 Bft)
22.03.2014 08:02 7,4 C 5,6 C 90 % 1002,5 hPa 0,0 l/m 0 min 0 min 0,0 UV-I 72 W/m 7,7 km/h (2 Bft)
22.03.2014 08:06 7,6 C 5,6 C 89 % 1002,5 hPa 0,0 l/m 0 min 0 min 0,0 UV-I 74 W/m 2,6 km/h (1 Bft)
22.03.2014 08:08 7,7 C 6,1 C 89 % 1002,6 hPa 0,0 l/m 0 min 0 min 0,0 UV-I 77 W/m 2,6 km/h (1 Bft)
22.03.2014 08:10 7,7 C 6,1 C 89 % 1002,5 hPa 0,0 l/m 0 min 0 min 0,0 UV-I 81 W/m 0,0 km/h (0 Bft)
22.03.2014 08:12 7,8 C 6,1 C 88 % 1002,5 hPa 0,0 l/m 0 min 0 min 0,0 UV-I 81 W/m 0,0 km/h (0 Bft)
22.03.2014 08:14 7,9 C 6,1 C 88 % 1002,5 hPa 0,0 l/m 0 min 0 min 0,0 UV-I 83 W/m 7,7 km/h (2 Bft)
22.03.2014 08:16 7,9 C 6,1 C 88 % 1002,5 hPa 0,0 l/m 0 min 0 min 0,0 UV-I 88 W/m 10,3 km/h (2 Bft)
22.03.2014 08:18 8,0 C 6,1 C 88 % 1002,6 hPa 0,0 l/m 0 min 0 min 0,0 UV-I 90 W/m 7,7 km/h (2 Bft)
22.03.2014 08:20 8,1 C 6,1 C 87 % 1002,6 hPa 0,0 l/m 0 min 0 min 0,0 UV-I 81 W/m 2,6 km/h (1 Bft)
22.03.2014 08:22 8,1 C 6,1 C 87 % 1002,6 hPa 0,0 l/m 0 min 0 min 0,0 UV-I 79 W/m 7,7 km/h (2 Bft)
22.03.2014 08:24 8,1 C 6,1 C 87 % 1002,6 hPa 0,0 l/m 0 min 0 min 0,0 UV-I 84 W/m 2,6 km/h (1 Bft)
22.03.2014 08:26 8,1 C 6,7 C 87 % 1002,6 hPa 0,0 l/m 0 min 0 min 0,0 UV-I 93 W/m 0,0 km/h (0 Bft)
22.03.2014 08:28 8,2 C 6,7 C 87 % 1002,6 hPa 0,0 l/m 0 min 0 min 0,0 UV-I 98 W/m 0,0 km/h (0 Bft)
22.03.2014 08:30 8,2 C 6,7 C 87 % 1002,7 hPa 0,0 l/m 0 min 0 min 0,0 UV-I 102 W/m 12,9 km/h (3 Bft)
22.03.2014 08:32 8,2 C 6,7 C 87 % 1002,6 hPa 0,0 l/m 0 min 0 min 0,0 UV-I 105 W/m 10,3 km/h (2 Bft)
22.03.2014 08:34 8,3 C 6,7 C 87 % 1002,7 hPa 0,0 l/m 0 min 0 min 0,0 UV-I 111 W/m 7,7 km/h (2 Bft)
22.03.2014 08:36 8,3 C 6,7 C 87 % 1002,7 hPa 0,0 l/m 0 min 0 min 0,0 UV-I 116 W/m 5,1 km/h (1 Bft)
22.03.2014 08:38 8,4 C 6,7 C 87 % 1002,6 hPa 0,0 l/m 0 min 0 min 0,0 UV-I 118 W/m 5,1 km/h (1 Bft)
22.03.2014 08:40 8,4 C 6,7 C 87 % 1002,6 hPa 0,0 l/m 0 min 0 min 0,0 UV-I 144 W/m 0,0 km/h (0 Bft)
22.03.2014 08:42 8,4 C 6,7 C 87 % 1002,5 hPa 0,0 l/m 0 min 0 min 0,0 UV-I 163 W/m 5,1 km/h (1 Bft)
22.03.2014 08:44 8,6 C 7,2 C 87 % 1002,5 hPa 0,0 l/m 0 min 0 min 0,0 UV-I 149 W/m 0,0 km/h (0 Bft)
22.03.2014 08:46 8,6 C 7,2 C 86 % 1002,5 hPa 0,0 l/m 0 min 0 min 0,0 UV-I 146 W/m 20,6 km/h (4 Bft)
22.03.2014 08:48 8,7 C 7,2 C 86 % 1002,5 hPa 0,0 l/m 0 min 0 min 0,0 UV-I 146 W/m 18,0 km/h (3 Bft)
22.03.2014 08:50 8,7 C 7,2 C 85 % 1002,6 hPa 0,0 l/m 0 min 0 min 0,0 UV-I 153 W/m 7,7 km/h (2 Bft)
22.03.2014 08:52 8,7 C 7,2 C 84 % 1002,5 hPa 0,0 l/m 0 min 0 min 0,0 UV-I 156 W/m 18,0 km/h (3 Bft)
22.03.2014 08:54 8,8 C 7,2 C 84 % 1002,5 hPa 0,0 l/m 0 min 0 min 0,0 UV-I 153 W/m 7,7 km/h (2 Bft)
22.03.2014 08:56 8,9 C 7,2 C 83 % 1002,5 hPa 0,0 l/m 0 min 0 min 0,0 UV-I 188 W/m 10,3 km/h (2 Bft)
22.03.2014 08:58 8,9 C 7,2 C 83 % 1002,5 hPa 0,0 l/m 2 min 0 min 0,0 UV-I 250 W/m 15,4 km/h (3 Bft)
22.03.2014 09:00 8,9 C 7,2 C 83 % 1002,4 hPa 0,0 l/m 2 min 0 min 0,0 UV-I 292 W/m 5,1 km/h (1 Bft)
22.03.2014 09:02 9,1 C 7,2 C 83 % 1002,4 hPa 0,0 l/m 2 min 0 min 0,0 UV-I 274 W/m 12,9 km/h (3 Bft)
22.03.2014 09:06 9,2 C 7,8 C 83 % 1002,5 hPa 0,0 l/m 2 min 0 min 0,0 UV-I 285 W/m 25,7 km/h (4 Bft)
22.03.2014 09:08 9,3 C 7,8 C 82 % 1002,5 hPa 0,0 l/m 2 min 0 min 0,0 UV-I 288 W/m 18,0 km/h (3 Bft)
22.03.2014 09:10 9,3 C 7,8 C 81 % 1002,6 hPa 0,0 l/m 2 min 0 min 0,0 UV-I 295 W/m 15,4 km/h (3 Bft)
22.03.2014 09:12 9,4 C 7,8 C 81 % 1002,5 hPa 0,0 l/m 2 min 0 min 0,0 UV-I 288 W/m 15,4 km/h (3 Bft)
22.03.2014 09:14 9,5 C 7,8 C 80 % 1002,6 hPa 0,0 l/m 2 min 0 min 0,0 UV-I 327 W/m 28,3 km/h (4 Bft)
22.03.2014 09:16 9,6 C 7,8 C 80 % 1002,5 hPa 0,0 l/m 2 min 0 min 0,0 UV-I 350 W/m 25,7 km/h (4 Bft)
22.03.2014 09:18 9,6 C 7,8 C 80 % 1002,5 hPa 0,0 l/m 2 min 0 min 0,0 UV-I 327 W/m 18,0 km/h (3 Bft)
22.03.2014 09:20 9,7 C 7,8 C 79 % 1002,5 hPa 0,0 l/m 2 min 0 min 0,0 UV-I 295 W/m 15,4 km/h (3 Bft)
22.03.2014 09:22 9,7 C 7,8 C 78 % 1002,5 hPa 0,0 l/m 0 min 0 min 0,0 UV-I 213 W/m 28,3 km/h (4 Bft)
22.03.2014 09:24 9,8 C 7,8 C 77 % 1002,4 hPa 0,0 l/m 2 min 0 min 0,0 UV-I 308 W/m 25,7 km/h (4 Bft)
22.03.2014 09:26 9,8 C 7,8 C 77 % 1002,4 hPa 0,0 l/m 2 min 0 min 0,0 UV-I 308 W/m 28,3 km/h (4 Bft)
22.03.2014 09:28 9,9 C 7,8 C 77 % 1002,4 hPa 0,0 l/m 2 min 0 min 0,0 UV-I 294 W/m 10,3 km/h (2 Bft)
22.03.2014 09:30 9,9 C 8,3 C 78 % 1002,4 hPa 0,0 l/m 2 min 0 min 0,0 UV-I 318 W/m 15,4 km/h (3 Bft)
22.03.2014 09:32 10,0 C 8,3 C 77 % 1002,4 hPa 0,0 l/m 2 min 0 min 0,0 UV-I 348 W/m 15,4 km/h (3 Bft)
22.03.2014 09:34 10,0 C 8,3 C 77 % 1002,4 hPa 0,0 l/m 2 min 0 min 0,0 UV-I 327 W/m 15,4 km/h (3 Bft)
22.03.2014 09:36 10,1 C 8,3 C 77 % 1002,3 hPa 0,0 l/m 2 min 0 min 0,0 UV-I 352 W/m 20,6 km/h (4 Bft)
22.03.2014 09:38 10,2 C 8,3 C 77 % 1002,4 hPa 0,0 l/m 2 min 0 min 0,0 UV-I 374 W/m 20,6 km/h (4 Bft)
22.03.2014 09:40 10,3 C 8,9 C 77 % 1002,5 hPa 0,0 l/m 2 min 0 min 0,0 UV-I 323 W/m 10,3 km/h (2 Bft)
22.03.2014 09:42 10,4 C 8,9 C 77 % 1002,5 hPa 0,0 l/m 2 min 0 min 0,0 UV-I 323 W/m 15,4 km/h (3 Bft)
22.03.2014 09:44 10,4 C 8,9 C 76 % 1002,5 hPa 0,0 l/m 0 min 0 min 0,0 UV-I 218 W/m 25,7 km/h (4 Bft)
22.03.2014 09:46 10,4 C 8,9 C 76 % 1002,5 hPa 0,0 l/m 0 min 0 min 0,0 UV-I 213 W/m 18,0 km/h (3 Bft)
22.03.2014 09:48 10,4 C 8,9 C 75 % 1002,4 hPa 0,0 l/m 2 min 0 min 0,0 UV-I 378 W/m 30,9 km/h (5 Bft)
22.03.2014 09:50 10,5 C 9,4 C 76 % 1002,4 hPa 0,0 l/m 2 min 0 min 0,0 UV-I 362 W/m 15,4 km/h (3 Bft)
22.03.2014 09:52 10,5 C 9,4 C 75 % 1002,4 hPa 0,0 l/m 2 min 0 min 0,5 UV-I 420 W/m 15,4 km/h (3 Bft)
22.03.2014 09:54 10,6 C 9,4 C 74 % 1002,4 hPa 0,0 l/m 2 min 0 min 0,0 UV-I 438 W/m 18,0 km/h (3 Bft)
22.03.2014 09:56 10,6 C 9,4 C 74 % 1002,4 hPa 0,0 l/m 2 min 0 min 0,0 UV-I 438 W/m 15,4 km/h (3 Bft)
22.03.2014 09:58 10,6 C 9,4 C 74 % 1002,5 hPa 0,0 l/m 2 min 0 min 0,0 UV-I 420 W/m 20,6 km/h (4 Bft)
22.03.2014 10:00 10,7 C 9,4 C 74 % 1002,5 hPa 0,0 l/m 2 min 0 min 0,0 UV-I 396 W/m 18,0 km/h (3 Bft)
22.03.2014 10:02 10,7 C 9,4 C 74 % 1002,6 hPa 0,0 l/m 0 min 0 min 0,0 UV-I 190 W/m 18,0 km/h (3 Bft)
22.03.2014 10:06 10,5 C 9,4 C 73 % 1002,5 hPa 0,0 l/m 0 min 0 min 0,0 UV-I 206 W/m 38,6 km/h (5 Bft)
22.03.2014 10:08 10,3 C 9,4 C 73 % 1002,6 hPa 0,0 l/m 0 min 0 min 0,0 UV-I 236 W/m 28,3 km/h (4 Bft)
22.03.2014 10:10 10,3 C 9,4 C 73 % 1002,5 hPa 0,0 l/m 0 min 0 min 0,8 UV-I 246 W/m 23,2 km/h (4 Bft)
22.03.2014 10:12 10,3 C 10,0 C 74 % 1002,6 hPa 0,0 l/m 2 min 0 min 0,9 UV-I 650 W/m 10,3 km/h (2 Bft)
22.03.2014 10:14 10,4 C 10,0 C 74 % 1002,6 hPa 0,0 l/m 0 min 0 min 0,0 UV-I 248 W/m 18,0 km/h (3 Bft)
22.03.2014 10:16 10,5 C 10,0 C 73 % 1002,5 hPa 0,0 l/m 0 min 0 min 0,9 UV-I 264 W/m 18,0 km/h (3 Bft)
22.03.2014 10:18 10,7 C 10,6 C 74 % 1002,5 hPa 0,0 l/m 0 min 0 min 0,0 UV-I 264 W/m 10,3 km/h (2 Bft)
22.03.2014 10:20 10,7 C 10,0 C 73 % 1002,5 hPa 0,0 l/m 0 min 0 min 0,0 UV-I 241 W/m 25,7 km/h (4 Bft)
22.03.2014 10:22 10,7 C 10,0 C 72 % 1002,6 hPa 0,0 l/m 0 min 0 min 0,0 UV-I 190 W/m 23,2 km/h (4 Bft)
22.03.2014 10:24 10,7 C 9,4 C 72 % 1002,5 hPa 0,0 l/m 0 min 0 min 0,0 UV-I 120 W/m 18,0 km/h (3 Bft)
22.03.2014 10:26 10,6 C 9,4 C 72 % 1002,5 hPa 0,0 l/m 0 min 0 min 0,0 UV-I 153 W/m 23,2 km/h (4 Bft)
22.03.2014 10:28 10,5 C 9,4 C 73 % 1002,6 hPa 0,0 l/m 0 min 0 min 0,0 UV-I 98 W/m 15,4 km/h (3 Bft)
22.03.2014 10:30 10,4 C 9,4 C 73 % 1002,6 hPa 0,0 l/m 0 min 0 min 0,0 UV-I 120 W/m 10,3 km/h (2 Bft)
22.03.2014 10:32 10,4 C 9,4 C 74 % 1002,7 hPa 0,0 l/m 0 min 0 min 0,0 UV-I 165 W/m 15,4 km/h (3 Bft)
22.03.2014 10:34 10,3 C 9,4 C 74 % 1002,7 hPa 0,0 l/m 0 min 0 min 0,5 UV-I 230 W/m 15,4 km/h (3 Bft)
22.03.2014 10:36 10,3 C 9,4 C 74 % 1002,6 hPa 0,0 l/m 0 min 0 min 0,0 UV-I 195 W/m 20,6 km/h (4 Bft)
22.03.2014 10:38 10,3 C 9,4 C 74 % 1002,5 hPa 0,0 l/m 0 min 0 min 0,0 UV-I 176 W/m 12,9 km/h (3 Bft)
22.03.2014 10:40 10,3 C 9,4 C 73 % 1002,5 hPa 0,0 l/m 0 min 0 min 0,5 UV-I 167 W/m 12,9 km/h (3 Bft)
22.03.2014 10:42 10,3 C 9,4 C 74 % 1002,6 hPa 0,0 l/m 0 min 0 min 0,7 UV-I 209 W/m 18,0 km/h (3 Bft)
22.03.2014 10:44 10,3 C 9,4 C 74 % 1002,5 hPa 0,0 l/m 0 min 0 min 0,7 UV-I 211 W/m 23,2 km/h (4 Bft)
22.03.2014 10:46 10,3 C 9,4 C 73 % 1002,6 hPa 0,2 l/m 0 min 0 min 1,2 UV-I 211 W/m 23,2 km/h (4 Bft)
22.03.2014 10:48 10,6 C 10,0 C 74 % 1002,5 hPa 0,0 l/m 0 min 0 min 0,9 UV-I 211 W/m 18,0 km/h (3 Bft)
22.03.2014 10:50 10,7 C 10,6 C 73 % 1002,4 hPa 0,0 l/m 0 min 0 min 0,9 UV-I 301 W/m 18,0 km/h (3 Bft)
22.03.2014 10:52 10,7 C 10,0 C 71 % 1002,5 hPa 0,0 l/m 0 min 0 min 0,5 UV-I 260 W/m 33,5 km/h (5 Bft)
22.03.2014 10:54 10,7 C 10,0 C 72 % 1002,5 hPa 0,0 l/m 0 min 0 min 0,5 UV-I 163 W/m 25,7 km/h (4 Bft)
22.03.2014 10:56 10,7 C 10,0 C 72 % 1002,4 hPa 0,0 l/m 0 min 0 min 1,3 UV-I 155 W/m 23,2 km/h (4 Bft)
22.03.2014 10:58 10,9 C 10,6 C 74 % 1002,4 hPa 0,0 l/m 2 min 0 min 1,3 UV-I 564 W/m 10,3 km/h (2 Bft)
22.03.2014 11:00 11,3 C 10,6 C 74 % 1002,3 hPa 0,0 l/m 2 min 0 min 1,4 UV-I 619 W/m 15,4 km/h (3 Bft)
22.03.2014 11:02 11,4 C 10,6 C 72 % 1002,3 hPa 0,0 l/m 2 min 0 min 0,6 UV-I 643 W/m 12,9 km/h (3 Bft)
22.03.2014 11:06 11,2 C 10,6 C 70 % 1002,2 hPa 0,0 l/m 0 min 0 min 1,1 UV-I 241 W/m 20,6 km/h (4 Bft)
22.03.2014 11:08 11,2 C 10,6 C 70 % 1002,2 hPa 0,0 l/m 2 min 0 min 1,4 UV-I 367 W/m 28,3 km/h (4 Bft)
22.03.2014 11:10 11,4 C 11,1 C 71 % 1002,2 hPa 0,0 l/m 0 min 0 min 0,7 UV-I 322 W/m 18,0 km/h (3 Bft)
22.03.2014 11:12 11,5 C 11,1 C 70 % 1002,2 hPa 0,0 l/m 0 min 0 min 0,8 UV-I 262 W/m 25,7 km/h (4 Bft)
22.03.2014 11:14 11,5 C 11,1 C 69 % 1002,2 hPa 0,0 l/m 0 min 0 min 0,0 UV-I 230 W/m 25,7 km/h (4 Bft)
22.03.2014 11:16 11,3 C 10,6 C 69 % 1002,1 hPa 0,0 l/m 0 min 0 min 0,0 UV-I 211 W/m 18,0 km/h (3 Bft)
22.03.2014 11:18 11,3 C 10,6 C 68 % 1002,2 hPa 0,0 l/m 0 min 0 min 0,0 UV-I 139 W/m 28,3 km/h (4 Bft)
22.03.2014 11:20 11,2 C 10,6 C 69 % 1002,2 hPa 0,0 l/m 0 min 0 min 0,0 UV-I 292 W/m 28,3 km/h (4 Bft)
22.03.2014 11:22 11,1 C 10,6 C 69 % 1002,2 hPa 0,0 l/m 0 min 0 min 0,0 UV-I 294 W/m 23,2 km/h (4 Bft)
22.03.2014 11:24 11,0 C 10,6 C 69 % 1002,2 hPa 0,0 l/m 0 min 0 min 0,0 UV-I 257 W/m 15,4 km/h (3 Bft)
22.03.2014 11:26 11,1 C 10,6 C 70 % 1002,2 hPa 0,0 l/m 0 min 0 min 0,5 UV-I 302 W/m 15,4 km/h (3 Bft)
22.03.2014 11:28 11,0 C 10,6 C 69 % 1002,1 hPa 0,0 l/m 0 min 0 min 0,0 UV-I 281 W/m 30,9 km/h (5 Bft)
22.03.2014 11:30 11,0 C 10,6 C 69 % 1002,1 hPa 0,0 l/m 0 min 0 min 0,7 UV-I 306 W/m 23,2 km/h (4 Bft)
22.03.2014 11:32 11,1 C 10,6 C 69 % 1002,0 hPa 0,0 l/m 2 min 0 min 1,2 UV-I 401 W/m 20,6 km/h (4 Bft)
22.03.2014 11:34 11,3 C 11,1 C 69 % 1001,9 hPa 0,0 l/m 2 min 0 min 1,6 UV-I 707 W/m 25,7 km/h (4 Bft)
22.03.2014 11:36 11,4 C 11,1 C 68 % 1001,9 hPa 0,0 l/m 2 min 0 min 1,3 UV-I 643 W/m 30,9 km/h (5 Bft)
22.03.2014 11:38 11,6 C 11,1 C 69 % 1001,8 hPa 0,0 l/m 0 min 0 min 0,9 UV-I 318 W/m 12,9 km/h (3 Bft)
22.03.2014 11:40 11,7 C 11,7 C 68 % 1001,9 hPa 0,0 l/m 2 min 0 min 0,9 UV-I 367 W/m 20,6 km/h (4 Bft)
22.03.2014 11:42 11,7 C 11,1 C 68 % 1001,8 hPa 0,0 l/m 0 min 0 min 0,8 UV-I 332 W/m 30,9 km/h (5 Bft)
22.03.2014 11:44 11,6 C 11,1 C 67 % 1001,8 hPa 0,0 l/m 0 min 0 min 0,7 UV-I 322 W/m 20,6 km/h (4 Bft)
22.03.2014 11:46 11,6 C 11,1 C 68 % 1001,8 hPa 0,0 l/m 0 min 0 min 0,6 UV-I 287 W/m 15,4 km/h (3 Bft)
22.03.2014 11:48 11,6 C 11,1 C 68 % 1001,8 hPa 0,0 l/m 0 min 0 min 0,6 UV-I 309 W/m 18,0 km/h (3 Bft)
22.03.2014 11:50 11,6 C 11,1 C 67 % 1001,7 hPa 0,0 l/m 2 min 0 min 0,8 UV-I 348 W/m 20,6 km/h (4 Bft)
22.03.2014 11:52 11,6 C 11,1 C 67 % 1001,7 hPa 0,0 l/m 0 min 0 min 0,6 UV-I 271 W/m 20,6 km/h (4 Bft)
22.03.2014 11:54 11,5 C 11,1 C 66 % 1001,7 hPa 0,0 l/m 0 min 0 min 0,0 UV-I 206 W/m 18,0 km/h (3 Bft)
22.03.2014 11:56 11,4 C 10,6 C 67 % 1001,6 hPa 0,0 l/m 0 min 0 min 0,0 UV-I 211 W/m 23,2 km/h (4 Bft)
22.03.2014 11:58 11,3 C 10,6 C 68 % 1001,6 hPa 0,0 l/m 0 min 0 min 0,0 UV-I 155 W/m 18,0 km/h (3 Bft)
22.03.2014 12:00 11,2 C 10,0 C 67 % 1001,6 hPa 0,0 l/m 0 min 0 min 0,0 UV-I 104 W/m 36,0 km/h (5 Bft)
22.03.2014 12:02 11,1 C 10,0 C 67 % 1001,6 hPa 0,0 l/m 0 min 0 min 0,0 UV-I 113 W/m 36,0 km/h (5 Bft)
22.03.2014 12:06 10,9 C 10,0 C 68 % 1001,6 hPa 0,0 l/m 0 min 0 min 0,0 UV-I 114 W/m 28,3 km/h (4 Bft)
22.03.2014 12:08 10,9 C 10,0 C 70 % 1001,7 hPa 0,0 l/m 0 min 0 min 0,0 UV-I 102 W/m 7,7 km/h (2 Bft)
22.03.2014 12:10 10,8 C 10,0 C 70 % 1001,6 hPa 0,0 l/m 0 min 0 min 0,0 UV-I 91 W/m 12,9 km/h (3 Bft)
22.03.2014 12:12 10,8 C 9,4 C 70 % 1001,6 hPa 0,0 l/m 0 min 0 min 0,0 UV-I 88 W/m 25,7 km/h (4 Bft)
22.03.2014 12:14 10,8 C 9,4 C 71 % 1001,6 hPa 0,0 l/m 0 min 0 min 0,0 UV-I 81 W/m 10,3 km/h (2 Bft)
22.03.2014 12:16 10,8 C 9,4 C 71 % 1001,7 hPa 0,0 l/m 0 min 0 min 0,0 UV-I 72 W/m 28,3 km/h (4 Bft)
22.03.2014 12:18 10,7 C 9,4 C 70 % 1001,6 hPa 0,0 l/m 0 min 0 min 0,0 UV-I 63 W/m 23,2 km/h (4 Bft)
22.03.2014 12:20 10,6 C 9,4 C 71 % 1001,6 hPa 0,0 l/m 0 min 0 min 0,0 UV-I 56 W/m 18,0 km/h (3 Bft)
22.03.2014 12:22 10,5 C 9,4 C 72 % 1001,6 hPa 0,0 l/m 0 min 0 min 0,0 UV-I 67 W/m 25,7 km/h (4 Bft)
22.03.2014 12:24 10,4 C 8,9 C 73 % 1001,6 hPa 0,0 l/m 0 min 2 min 0,0 UV-I 84 W/m 10,3 km/h (2 Bft)
22.03.2014 12:26 10,3 C 8,3 C 76 % 1001,6 hPa 0,0 l/m 0 min 2 min 0,0 UV-I 86 W/m 0,0 km/h (0 Bft)
22.03.2014 12:28 10,2 C 7,8 C 77 % 1001,6 hPa 0,0 l/m 0 min 2 min 0,0 UV-I 93 W/m 10,3 km/h (2 Bft)
22.03.2014 12:30 10,0 C 7,8 C 78 % 1001,6 hPa 0,0 l/m 0 min 2 min 0,0 UV-I 60 W/m 2,6 km/h (1 Bft)
22.03.2014 12:32 9,9 C 7,2 C 78 % 1001,7 hPa 0,0 l/m 0 min 2 min 0,0 UV-I 53 W/m 15,4 km/h (3 Bft)
22.03.2014 12:34 9,7 C 7,2 C 79 % 1001,7 hPa 0,0 l/m 0 min 2 min 0,0 UV-I 58 W/m 5,1 km/h (1 Bft)
22.03.2014 12:36 9,7 C 7,2 C 79 % 1001,8 hPa 0,0 l/m 0 min 2 min 0,0 UV-I 51 W/m 10,3 km/h (2 Bft)
22.03.2014 12:38 9,6 C 7,2 C 81 % 1001,8 hPa 0,0 l/m 0 min 2 min 0,0 UV-I 58 W/m 12,9 km/h (3 Bft)
22.03.2014 12:40 9,6 C 7,2 C 82 % 1001,9 hPa 0,0 l/m 0 min 2 min 0,0 UV-I 47 W/m 20,6 km/h (4 Bft)
22.03.2014 12:42 9,4 C 6,7 C 82 % 1002,0 hPa 0,2 l/m 0 min 2 min 0,0 UV-I 33 W/m 33,5 km/h (5 Bft)
22.03.2014 12:44 9,1 C 6,7 C 84 % 1002,2 hPa 0,0 l/m 0 min 2 min 0,0 UV-I 53 W/m 20,6 km/h (4 Bft)
22.03.2014 12:46 8,7 C 6,7 C 85 % 1002,1 hPa 0,2 l/m 0 min 2 min 0,0 UV-I 116 W/m 28,3 km/h (4 Bft)
22.03.2014 12:48 8,4 C 6,7 C 86 % 1002,1 hPa 0,0 l/m 0 min 2 min 0,0 UV-I 105 W/m 7,7 km/h (2 Bft)
22.03.2014 12:50 8,2 C 6,7 C 87 % 1002,1 hPa 0,0 l/m 0 min 2 min 0,0 UV-I 79 W/m 23,2 km/h (4 Bft)
22.03.2014 12:52 7,9 C 6,7 C 89 % 1002,1 hPa 0,0 l/m 0 min 2 min 0,0 UV-I 81 W/m 12,9 km/h (3 Bft)
22.03.2014 12:54 7,8 C 6,7 C 89 % 1002,1 hPa 0,0 l/m 0 min 2 min 0,0 UV-I 84 W/m 10,3 km/h (2 Bft)
22.03.2014 12:56 7,7 C 6,7 C 90 % 1002,1 hPa 0,0 l/m 0 min 2 min 0,0 UV-I 56 W/m 2,6 km/h (1 Bft)
22.03.2014 12:58 7,7 C 6,7 C 91 % 1002,2 hPa 0,2 l/m 0 min 2 min 0,0 UV-I 67 W/m 5,1 km/h (1 Bft)
22.03.2014 13:00 7,7 C 6,7 C 91 % 1002,2 hPa 0,0 l/m 0 min 2 min 0,0 UV-I 72 W/m 5,1 km/h (1 Bft)
22.03.2014 13:02 7,6 C 6,7 C 92 % 1002,2 hPa 0,2 l/m 0 min 2 min 0,0 UV-I 74 W/m 10,3 km/h (2 Bft)
22.03.2014 13:06 7,5 C 6,7 C 92 % 1002,1 hPa 0,0 l/m 0 min 2 min 0,0 UV-I 84 W/m 15,4 km/h (3 Bft)
22.03.2014 13:08 7,5 C 6,7 C 93 % 1002,1 hPa 0,0 l/m 0 min 2 min 0,0 UV-I 100 W/m 10,3 km/h (2 Bft)
22.03.2014 13:10 7,4 C 6,7 C 93 % 1002,1 hPa 0,2 l/m 0 min 2 min 0,0 UV-I 105 W/m 18,0 km/h (3 Bft)
22.03.2014 13:12 7,4 C 6,7 C 93 % 1002,1 hPa 0,0 l/m 0 min 2 min 0,0 UV-I 95 W/m 2,6 km/h (1 Bft)
22.03.2014 13:14 7,4 C 6,7 C 93 % 1002,1 hPa 0,0 l/m 0 min 2 min 0,0 UV-I 104 W/m 5,1 km/h (1 Bft)
22.03.2014 13:16 7,4 C 6,7 C 93 % 1002,1 hPa 0,0 l/m 0 min 2 min 0,0 UV-I 146 W/m 5,1 km/h (1 Bft)
22.03.2014 13:18 7,4 C 6,7 C 94 % 1002,1 hPa 0,0 l/m 0 min 2 min 0,0 UV-I 141 W/m 20,6 km/h (4 Bft)
22.03.2014 13:20 7,4 C 6,7 C 94 % 1002,1 hPa 0,2 l/m 0 min 2 min 0,0 UV-I 121 W/m 0,0 km/h (0 Bft)
22.03.2014 13:22 7,4 C 6,7 C 94 % 1002,1 hPa 0,0 l/m 0 min 2 min 0,0 UV-I 127 W/m 15,4 km/h (3 Bft)
22.03.2014 13:24 7,4 C 6,7 C 94 % 1002,0 hPa 0,0 l/m 0 min 2 min 0,0 UV-I 120 W/m 2,6 km/h (1 Bft)
22.03.2014 13:26 7,4 C 6,7 C 94 % 1002,1 hPa 0,0 l/m 0 min 2 min 0,0 UV-I 118 W/m 7,7 km/h (2 Bft)
22.03.2014 13:28 7,4 C 6,7 C 94 % 1002,1 hPa 0,0 l/m 0 min 2 min 0,0 UV-I 135 W/m 15,4 km/h (3 Bft)
22.03.2014 13:30 7,4 C 6,7 C 94 % 1002,1 hPa 0,0 l/m 0 min 2 min 0,0 UV-I 148 W/m 10,3 km/h (2 Bft)
22.03.2014 13:32 7,4 C 6,7 C 94 % 1002,1 hPa 0,0 l/m 0 min 2 min 0,0 UV-I 193 W/m 15,4 km/h (3 Bft)
22.03.2014 13:34 7,5 C 6,7 C 94 % 1002,1 hPa 0,0 l/m 0 min 2 min 0,0 UV-I 98 W/m 15,4 km/h (3 Bft)
22.03.2014 13:36 7,5 C 6,7 C 94 % 1002,1 hPa 0,0 l/m 0 min 2 min 0,0 UV-I 118 W/m 0,0 km/h (0 Bft)
22.03.2014 13:38 7,5 C 6,7 C 94 % 1002,1 hPa 0,0 l/m 0 min 2 min 0,0 UV-I 125 W/m 15,4 km/h (3 Bft)
22.03.2014 13:40 7,5 C 6,7 C 94 % 1002,0 hPa 0,2 l/m 0 min 2 min 0,5 UV-I 251 W/m 10,3 km/h (2 Bft)
22.03.2014 13:42 7,6 C 7,2 C 94 % 1001,9 hPa 0,0 l/m 0 min 2 min 0,7 UV-I 294 W/m 10,3 km/h (2 Bft)
22.03.2014 13:44 7,7 C 7,2 C 94 % 1001,8 hPa 0,0 l/m 0 min 2 min 0,8 UV-I 334 W/m 5,1 km/h (1 Bft)
22.03.2014 13:46 7,8 C 7,8 C 94 % 1001,8 hPa 0,0 l/m 0 min 0 min 0,8 UV-I 313 W/m 12,9 km/h (3 Bft)
22.03.2014 13:48 7,9 C 7,8 C 94 % 1001,6 hPa 0,0 l/m 0 min 0 min 0,6 UV-I 283 W/m 10,3 km/h (2 Bft)
22.03.2014 13:50 7,9 C 7,8 C 94 % 1001,7 hPa 0,0 l/m 0 min 0 min 0,6 UV-I 315 W/m 10,3 km/h (2 Bft)
22.03.2014 13:52 7,8 C 7,8 C 94 % 1001,6 hPa 0,0 l/m 2 min 0 min 1,1 UV-I 399 W/m 12,9 km/h (3 Bft)
22.03.2014 13:54 7,9 C 7,8 C 94 % 1001,6 hPa 0,0 l/m 2 min 0 min 0,9 UV-I 381 W/m 15,4 km/h (3 Bft)
22.03.2014 13:56 8,0 C 7,8 C 94 % 1001,6 hPa 0,0 l/m 0 min 0 min 0,5 UV-I 232 W/m 7,7 km/h (2 Bft)
22.03.2014 13:58 8,2 C 7,8 C 94 % 1001,6 hPa 0,0 l/m 0 min 0 min 0,0 UV-I 218 W/m 7,7 km/h (2 Bft)
22.03.2014 14:00 8,1 C 7,8 C 93 % 1001,6 hPa 0,0 l/m 0 min 0 min 0,5 UV-I 255 W/m 10,3 km/h (2 Bft)
22.03.2014 14:02 8,2 C 7,8 C 93 % 1001,6 hPa 0,0 l/m 2 min 0 min 1,0 UV-I 450 W/m 18,0 km/h (3 Bft)
22.03.2014 14:06 8,3 C 7,8 C 92 % 1001,4 hPa 0,0 l/m 2 min 0 min 0,9 UV-I 364 W/m 20,6 km/h (4 Bft)
22.03.2014 14:08 8,4 C 7,8 C 92 % 1001,3 hPa 0,0 l/m 2 min 0 min 1,0 UV-I 455 W/m 18,0 km/h (3 Bft)
22.03.2014 14:10 8,4 C 7,8 C 92 % 1001,4 hPa 0,0 l/m 0 min 0 min 0,6 UV-I 283 W/m 18,0 km/h (3 Bft)
22.03.2014 14:12 8,4 C 7,8 C 91 % 1001,4 hPa 0,0 l/m 0 min 0 min 0,5 UV-I 297 W/m 10,3 km/h (2 Bft)
22.03.2014 14:14 8,5 C 8,3 C 91 % 1001,4 hPa 0,0 l/m 0 min 0 min 0,0 UV-I 179 W/m 5,1 km/h (1 Bft)
22.03.2014 14:16 8,4 C 7,8 C 91 % 1001,5 hPa 0,0 l/m 0 min 0 min 0,0 UV-I 167 W/m 5,1 km/h (1 Bft)
22.03.2014 14:18 8,4 C 7,8 C 90 % 1001,5 hPa 0,0 l/m 0 min 0 min 0,0 UV-I 253 W/m 7,7 km/h (2 Bft)
22.03.2014 14:20 8,4 C 7,8 C 90 % 1001,5 hPa 0,0 l/m 0 min 0 min 0,5 UV-I 279 W/m 18,0 km/h (3 Bft)
22.03.2014 14:22 8,6 C 8,3 C 91 % 1001,4 hPa 0,0 l/m 0 min 0 min 0,5 UV-I 283 W/m 0,0 km/h (0 Bft)
22.03.2014 14:24 8,5 C 8,3 C 90 % 1001,3 hPa 0,0 l/m 2 min 0 min 0,7 UV-I 339 W/m 7,7 km/h (2 Bft)
22.03.2014 14:26 8,6 C 8,3 C 90 % 1001,3 hPa 0,0 l/m 2 min 0 min 0,7 UV-I 334 W/m 7,7 km/h (2 Bft)
22.03.2014 14:28 8,7 C 8,3 C 90 % 1001,4 hPa 0,0 l/m 2 min 0 min 0,8 UV-I 383 W/m 12,9 km/h (3 Bft)
22.03.2014 14:30 8,8 C 8,9 C 90 % 1001,3 hPa 0,0 l/m 2 min 0 min 1,2 UV-I 554 W/m 12,9 km/h (3 Bft)
22.03.2014 14:32 9,0 C 8,9 C 89 % 1001,4 hPa 0,0 l/m 2 min 0 min 0,9 UV-I 598 W/m 12,9 km/h (3 Bft)
22.03.2014 14:34 9,2 C 8,9 C 89 % 1001,2 hPa 0,0 l/m 2 min 0 min 0,7 UV-I 598 W/m 7,7 km/h (2 Bft)
22.03.2014 14:36 9,1 C 8,9 C 87 % 1001,2 hPa 0,0 l/m 2 min 0 min 0,6 UV-I 327 W/m 18,0 km/h (3 Bft)
22.03.2014 14:38 9,0 C 8,9 C 87 % 1001,2 hPa 0,0 l/m 2 min 0 min 0,5 UV-I 313 W/m 12,9 km/h (3 Bft)
22.03.2014 14:40 9,0 C 8,9 C 87 % 1001,2 hPa 0,0 l/m 2 min 0 min 0,6 UV-I 355 W/m 7,7 km/h (2 Bft)
22.03.2014 14:42 9,0 C 8,9 C 87 % 1001,2 hPa 0,0 l/m 2 min 0 min 0,6 UV-I 325 W/m 10,3 km/h (2 Bft)
22.03.2014 14:44 9,1 C 8,9 C 87 % 1001,2 hPa 0,0 l/m 2 min 0 min 0,5 UV-I 345 W/m 5,1 km/h (1 Bft)
22.03.2014 14:46 9,2 C 8,9 C 87 % 1001,1 hPa 0,0 l/m 0 min 0 min 0,0 UV-I 279 W/m 10,3 km/h (2 Bft)
22.03.2014 14:48 9,3 C 8,9 C 88 % 1001,1 hPa 0,0 l/m 0 min 0 min 0,0 UV-I 232 W/m 7,7 km/h (2 Bft)
22.03.2014 14:50 9,2 C 8,9 C 87 % 1001,1 hPa 0,0 l/m 0 min 0 min 0,0 UV-I 193 W/m 10,3 km/h (2 Bft)
22.03.2014 14:52 9,1 C 8,3 C 87 % 1001,0 hPa 0,0 l/m 0 min 0 min 0,0 UV-I 179 W/m 15,4 km/h (3 Bft)
22.03.2014 14:54 9,1 C 8,3 C 87 % 1001,2 hPa 0,0 l/m 0 min 0 min 0,0 UV-I 160 W/m 5,1 km/h (1 Bft)
22.03.2014 14:56 9,0 C 7,8 C 87 % 1001,2 hPa 0,0 l/m 0 min 0 min 0,0 UV-I 116 W/m 12,9 km/h (3 Bft)
22.03.2014 14:58 8,9 C 7,8 C 87 % 1001,3 hPa 0,0 l/m 0 min 0 min 0,0 UV-I 109 W/m 2,6 km/h (1 Bft)
22.03.2014 15:00 8,9 C 7,8 C 87 % 1001,3 hPa 0,0 l/m 0 min 0 min 0,0 UV-I 98 W/m 10,3 km/h (2 Bft)
22.03.2014 15:02 8,8 C 7,8 C 87 % 1001,3 hPa 0,0 l/m 0 min 0 min 0,0 UV-I 60 W/m 7,7 km/h (2 Bft)
22.03.2014 15:06 8,7 C 7,2 C 87 % 1001,4 hPa 0,0 l/m 0 min 0 min 0,0 UV-I 95 W/m 12,9 km/h (3 Bft)
22.03.2014 15:08 8,7 C 7,2 C 87 % 1001,5 hPa 0,0 l/m 0 min 0 min 0,0 UV-I 135 W/m 2,6 km/h (1 Bft)
22.03.2014 15:10 8,7 C 7,8 C 87 % 1001,4 hPa 0,0 l/m 0 min 0 min 0,0 UV-I 193 W/m 0,0 km/h (0 Bft)
22.03.2014 15:12 8,8 C 7,8 C 88 % 1001,4 hPa 0,0 l/m 0 min 0 min 0,0 UV-I 225 W/m 7,7 km/h (2 Bft)
22.03.2014 15:14 8,8 C 8,3 C 88 % 1001,3 hPa 0,0 l/m 0 min 0 min 0,0 UV-I 237 W/m 7,7 km/h (2 Bft)
22.03.2014 15:16 8,9 C 8,3 C 87 % 1001,3 hPa 0,0 l/m 0 min 0 min 0,0 UV-I 262 W/m 7,7 km/h (2 Bft)
22.03.2014 15:18 9,0 C 8,3 C 87 % 1001,4 hPa 0,0 l/m 2 min 0 min 0,0 UV-I 330 W/m 5,1 km/h (1 Bft)
22.03.2014 15:20 9,1 C 8,9 C 87 % 1001,4 hPa 0,0 l/m 2 min 0 min 0,0 UV-I 281 W/m 10,3 km/h (2 Bft)
22.03.2014 15:22 9,2 C 8,9 C 86 % 1001,4 hPa 0,0 l/m 0 min 0 min 0,0 UV-I 262 W/m 15,4 km/h (3 Bft)
22.03.2014 15:24 9,2 C 8,3 C 86 % 1001,3 hPa 0,0 l/m 0 min 0 min 0,0 UV-I 213 W/m 15,4 km/h (3 Bft)
22.03.2014 15:26 9,2 C 8,3 C 86 % 1001,3 hPa 0,0 l/m 0 min 0 min 0,0 UV-I 179 W/m 10,3 km/h (2 Bft)
22.03.2014 15:28 9,3 C 8,3 C 86 % 1001,4 hPa 0,0 l/m 0 min 0 min 0,0 UV-I 162 W/m 5,1 km/h (1 Bft)
22.03.2014 15:30 9,3 C 8,3 C 86 % 1001,5 hPa 0,0 l/m 0 min 0 min 0,0 UV-I 139 W/m 12,9 km/h (3 Bft)
22.03.2014 15:32 9,2 C 8,3 C 86 % 1001,5 hPa 0,0 l/m 0 min 0 min 0,0 UV-I 125 W/m 7,7 km/h (2 Bft)
22.03.2014 15:34 9,2 C 8,3 C 86 % 1001,5 hPa 0,0 l/m 0 min 0 min 0,0 UV-I 135 W/m 5,1 km/h (1 Bft)
22.03.2014 15:36 9,2 C 8,3 C 87 % 1001,5 hPa 0,0 l/m 0 min 0 min 0,0 UV-I 134 W/m 7,7 km/h (2 Bft)
22.03.2014 15:38 9,2 C 8,3 C 87 % 1001,5 hPa 0,0 l/m 0 min 0 min 0,0 UV-I 132 W/m 0,0 km/h (0 Bft)
22.03.2014 15:40 9,2 C 8,3 C 87 % 1001,4 hPa 0,0 l/m 0 min 0 min 0,0 UV-I 135 W/m 0,0 km/h (0 Bft)
22.03.2014 15:42 9,2 C 8,3 C 86 % 1001,5 hPa 0,0 l/m 0 min 0 min 0,0 UV-I 127 W/m 10,3 km/h (2 Bft)
22.03.2014 15:44 9,1 C 7,8 C 86 % 1001,5 hPa 0,0 l/m 0 min 0 min 0,0 UV-I 125 W/m 10,3 km/h (2 Bft)
22.03.2014 15:46 9,1 C 7,8 C 85 % 1001,5 hPa 0,0 l/m 0 min 0 min 0,0 UV-I 130 W/m 7,7 km/h (2 Bft)
22.03.2014 15:48 9,0 C 7,8 C 85 % 1001,4 hPa 0,0 l/m 0 min 0 min 0,0 UV-I 125 W/m 18,0 km/h (3 Bft)
22.03.2014 15:50 9,0 C 7,8 C 85 % 1001,4 hPa 0,0 l/m 0 min 0 min 0,0 UV-I 114 W/m 12,9 km/h (3 Bft)
22.03.2014 15:52 9,0 C 7,8 C 85 % 1001,5 hPa 0,0 l/m 0 min 0 min 0,0 UV-I 105 W/m 10,3 km/h (2 Bft)
22.03.2014 15:54 9,0 C 7,8 C 85 % 1001,4 hPa 0,0 l/m 0 min 0 min 0,0 UV-I 107 W/m 12,9 km/h (3 Bft)
22.03.2014 15:56 9,0 C 7,8 C 85 % 1001,5 hPa 0,0 l/m 0 min 0 min 0,0 UV-I 102 W/m 18,0 km/h (3 Bft)
22.03.2014 15:58 8,9 C 7,8 C 84 % 1001,5 hPa 0,0 l/m 0 min 0 min 0,0 UV-I 105 W/m 18,0 km/h (3 Bft)
22.03.2014 16:00 8,9 C 7,8 C 84 % 1001,3 hPa 0,0 l/m 0 min 0 min 0,0 UV-I 104 W/m 10,3 km/h (2 Bft)
22.03.2014 16:02 8,9 C 7,8 C 84 % 1001,4 hPa 0,0 l/m 0 min 0 min 0,0 UV-I 93 W/m 10,3 km/h (2 Bft)
22.03.2014 16:06 8,8 C 7,2 C 83 % 1001,3 hPa 0,0 l/m 0 min 0 min 0,0 UV-I 77 W/m 12,9 km/h (3 Bft)
22.03.2014 16:08 8,8 C 7,2 C 83 % 1001,3 hPa 0,0 l/m 0 min 0 min 0,0 UV-I 74 W/m 5,1 km/h (1 Bft)
22.03.2014 16:10 8,8 C 7,2 C 83 % 1001,3 hPa 0,0 l/m 0 min 0 min 0,0 UV-I 74 W/m 10,3 km/h (2 Bft)
22.03.2014 16:12 8,7 C 7,2 C 83 % 1001,4 hPa 0,0 l/m 0 min 0 min 0,0 UV-I 74 W/m 7,7 km/h (2 Bft)
22.03.2014 16:14 8,7 C 7,2 C 83 % 1001,4 hPa 0,0 l/m 0 min 0 min 0,0 UV-I 76 W/m 15,4 km/h (3 Bft)
22.03.2014 16:16 8,7 C 7,2 C 84 % 1001,4 hPa 0,0 l/m 0 min 0 min 0,0 UV-I 74 W/m 2,6 km/h (1 Bft)
22.03.2014 16:18 8,7 C 7,2 C 84 % 1001,3 hPa 0,0 l/m 0 min 0 min 0,0 UV-I 67 W/m 7,7 km/h (2 Bft)
22.03.2014 16:20 8,7 C 7,2 C 84 % 1001,3 hPa 0,0 l/m 0 min 0 min 0,0 UV-I 62 W/m 18,0 km/h (3 Bft)
22.03.2014 16:22 8,7 C 7,2 C 84 % 1001,3 hPa 0,0 l/m 0 min 0 min 0,0 UV-I 58 W/m 15,4 km/h (3 Bft)
22.03.2014 16:24 8,7 C 7,2 C 84 % 1001,4 hPa 0,0 l/m 0 min 0 min 0,0 UV-I 40 W/m 7,7 km/h (2 Bft)
22.03.2014 16:26 8,7 C 7,2 C 84 % 1002,0 hPa 0,0 l/m 0 min 2 min 0,0 UV-I 14 W/m 18,0 km/h (3 Bft)
22.03.2014 16:28 8,4 C 6,1 C 82 % 1002,1 hPa 0,0 l/m 0 min 2 min 0,0 UV-I 7 W/m 30,9 km/h (5 Bft)
22.03.2014 16:30 8,0 C 5,0 C 80 % 1002,1 hPa 0,0 l/m 0 min 2 min 0,0 UV-I 9 W/m 15,4 km/h (3 Bft)
22.03.2014 16:32 7,5 C 4,4 C 81 % 1002,0 hPa 0,2 l/m 0 min 2 min 0,0 UV-I 14 W/m 10,3 km/h (2 Bft)
22.03.2014 16:34 7,1 C 4,4 C 82 % 1002,1 hPa 0,0 l/m 0 min 2 min 0,0 UV-I 12 W/m 7,7 km/h (2 Bft)
22.03.2014 16:36 6,7 C 3,9 C 83 % 1002,1 hPa 0,2 l/m 0 min 2 min 0,0 UV-I 14 W/m 18,0 km/h (3 Bft)
22.03.2014 16:38 6,3 C 3,9 C 85 % 1002,1 hPa 0,0 l/m 0 min 2 min 0,0 UV-I 14 W/m 12,9 km/h (3 Bft)
22.03.2014 16:40 6,1 C 3,9 C 86 % 1002,1 hPa 0,2 l/m 0 min 2 min 0,0 UV-I 18 W/m 2,6 km/h (1 Bft)
22.03.2014 16:42 5,9 C 3,9 C 87 % 1002,1 hPa 0,0 l/m 0 min 2 min 0,0 UV-I 19 W/m 7,7 km/h (2 Bft)
22.03.2014 16:44 5,7 C 3,9 C 88 % 1002,1 hPa 0,0 l/m 0 min 2 min 0,0 UV-I 23 W/m 7,7 km/h (2 Bft)
22.03.2014 16:46 5,6 C 3,9 C 88 % 1002,0 hPa 0,0 l/m 0 min 2 min 0,0 UV-I 33 W/m 0,0 km/h (0 Bft)
22.03.2014 16:48 5,5 C 4,4 C 89 % 1002,1 hPa 0,2 l/m 0 min 2 min 0,0 UV-I 33 W/m 0,0 km/h (0 Bft)
22.03.2014 16:50 5,4 C 4,4 C 90 % 1002,1 hPa 0,0 l/m 0 min 2 min 0,0 UV-I 33 W/m 0,0 km/h (0 Bft)
22.03.2014 16:52 5,4 C 4,4 C 91 % 1002,0 hPa 0,0 l/m 0 min 2 min 0,0 UV-I 39 W/m 0,0 km/h (0 Bft)
22.03.2014 16:54 5,3 C 4,4 C 91 % 1002,0 hPa 0,0 l/m 0 min 2 min 0,0 UV-I 33 W/m 0,0 km/h (0 Bft)
22.03.2014 16:56 5,2 C 4,4 C 91 % 1002,1 hPa 0,0 l/m 0 min 2 min 0,0 UV-I 28 W/m 0,0 km/h (0 Bft)
22.03.2014 16:58 5,3 C 4,4 C 92 % 1002,1 hPa 0,0 l/m 0 min 2 min 0,0 UV-I 35 W/m 0,0 km/h (0 Bft)
22.03.2014 17:00 5,2 C 4,4 C 92 % 1002,1 hPa 0,2 l/m 0 min 2 min 0,0 UV-I 37 W/m 0,0 km/h (0 Bft)
22.03.2014 17:02 5,2 C 4,4 C 92 % 1002,1 hPa 0,0 l/m 0 min 2 min 0,0 UV-I 47 W/m 0,0 km/h (0 Bft)
22.03.2014 17:06 5,3 C 4,4 C 93 % 1001,9 hPa 0,0 l/m 0 min 0 min 0,0 UV-I 51 W/m 2,6 km/h (1 Bft)
22.03.2014 17:08 5,3 C 4,4 C 93 % 1001,8 hPa 0,0 l/m 0 min 0 min 0,0 UV-I 56 W/m 0,0 km/h (0 Bft)
22.03.2014 17:10 5,3 C 4,4 C 93 % 1001,8 hPa 0,0 l/m 0 min 0 min 0,0 UV-I 72 W/m 0,0 km/h (0 Bft)
22.03.2014 17:12 5,5 C 5,0 C 94 % 1001,7 hPa 0,0 l/m 0 min 0 min 0,0 UV-I 83 W/m 0,0 km/h (0 Bft)
22.03.2014 17:14 5,5 C 5,0 C 94 % 1001,7 hPa 0,0 l/m 0 min 0 min 0,0 UV-I 98 W/m 0,0 km/h (0 Bft)
22.03.2014 17:16 5,5 C 5,0 C 94 % 1001,8 hPa 0,0 l/m 0 min 0 min 0,0 UV-I 123 W/m 0,0 km/h (0 Bft)
22.03.2014 17:18 5,7 C 5,0 C 94 % 1001,7 hPa 0,0 l/m 0 min 0 min 0,0 UV-I 123 W/m 0,0 km/h (0 Bft)
22.03.2014 17:20 5,8 C 5,6 C 94 % 1001,7 hPa 0,0 l/m 2 min 0 min 0,0 UV-I 132 W/m 0,0 km/h (0 Bft)
22.03.2014 17:22 5,9 C 5,6 C 94 % 1001,7 hPa 0,0 l/m 2 min 0 min 0,0 UV-I 149 W/m 0,0 km/h (0 Bft)
22.03.2014 17:24 5,9 C 5,6 C 94 % 1001,7 hPa 0,0 l/m 2 min 0 min 0,0 UV-I 250 W/m 0,0 km/h (0 Bft)
22.03.2014 17:26 6,1 C 5,6 C 95 % 1001,7 hPa 0,0 l/m 2 min 0 min 0,0 UV-I 204 W/m 0,0 km/h (0 Bft)
22.03.2014 17:28 6,3 C 5,6 C 95 % 1001,7 hPa 0,0 l/m 2 min 0 min 0,0 UV-I 239 W/m 0,0 km/h (0 Bft)
22.03.2014 17:30 6,4 C 6,1 C 95 % 1001,8 hPa 0,0 l/m 2 min 0 min 0,0 UV-I 244 W/m 0,0 km/h (0 Bft)
22.03.2014 17:32 6,6 C 5,6 C 95 % 1001,8 hPa 0,0 l/m 2 min 0 min 0,0 UV-I 230 W/m 0,0 km/h (0 Bft)
22.03.2014 17:34 6,7 C 6,1 C 95 % 1001,8 hPa 0,0 l/m 2 min 0 min 0,0 UV-I 185 W/m 0,0 km/h (0 Bft)
22.03.2014 17:36 6,7 C 5,6 C 95 % 1001,8 hPa 0,0 l/m 2 min 0 min 0,0 UV-I 206 W/m 0,0 km/h (0 Bft)
22.03.2014 17:38 6,7 C 5,6 C 95 % 1001,8 hPa 0,0 l/m 2 min 0 min 0,0 UV-I 195 W/m 0,0 km/h (0 Bft)
22.03.2014 17:40 6,8 C 5,6 C 95 % 1001,8 hPa 0,0 l/m 2 min 0 min 0,0 UV-I 158 W/m 0,0 km/h (0 Bft)
22.03.2014 17:42 6,9 C 5,6 C 95 % 1001,9 hPa 0,0 l/m 2 min 0 min 0,0 UV-I 128 W/m 5,1 km/h (1 Bft)
22.03.2014 17:44 6,9 C 5,6 C 94 % 1002,0 hPa 0,0 l/m 2 min 0 min 0,0 UV-I 105 W/m 10,3 km/h (2 Bft)
22.03.2014 17:46 6,8 C 5,6 C 94 % 1002,0 hPa 0,0 l/m 2 min 0 min 0,0 UV-I 90 W/m 15,4 km/h (3 Bft)
22.03.2014 17:48 6,8 C 5,6 C 94 % 1001,9 hPa 0,0 l/m 2 min 0 min 0,0 UV-I 127 W/m 10,3 km/h (2 Bft)
22.03.2014 17:50 6,7 C 5,0 C 93 % 1001,9 hPa 0,0 l/m 2 min 0 min 0,0 UV-I 116 W/m 10,3 km/h (2 Bft)
22.03.2014 17:52 6,8 C 5,0 C 93 % 1002,1 hPa 0,0 l/m 0 min 0 min 0,0 UV-I 72 W/m 0,0 km/h (0 Bft)
22.03.2014 17:54 6,8 C 5,0 C 93 % 1001,9 hPa 0,0 l/m 2 min 0 min 0,0 UV-I 83 W/m 2,6 km/h (1 Bft)
22.03.2014 17:56 6,7 C 5,0 C 92 % 1002,0 hPa 0,0 l/m 0 min 0 min 0,0 UV-I 69 W/m 7,7 km/h (2 Bft)
22.03.2014 17:58 6,7 C 5,0 C 92 % 1002,1 hPa 0,0 l/m 2 min 0 min 0,0 UV-I 79 W/m 5,1 km/h (1 Bft)
22.03.2014 18:00 6,7 C 5,0 C 92 % 1002,1 hPa 0,0 l/m 0 min 0 min 0,0 UV-I 62 W/m 5,1 km/h (1 Bft)
22.03.2014 18:02 6,7 C 5,0 C 92 % 1002,1 hPa 0,0 l/m 2 min 0 min 0,0 UV-I 69 W/m 0,0 km/h (0 Bft)
22.03.2014 18:06 6,7 C 5,0 C 91 % 1002,0 hPa 0,0 l/m 2 min 0 min 0,0 UV-I 60 W/m 10,3 km/h (2 Bft)
22.03.2014 18:08 6,7 C 5,0 C 91 % 1002,1 hPa 0,0 l/m 0 min 0 min 0,0 UV-I 46 W/m 0,0 km/h (0 Bft)
22.03.2014 18:10 6,7 C 5,0 C 91 % 1002,1 hPa 0,0 l/m 0 min 0 min 0,0 UV-I 42 W/m 7,7 km/h (2 Bft)
22.03.2014 18:12 6,6 C 4,4 C 91 % 1002,1 hPa 0,0 l/m 0 min 0 min 0,0 UV-I 44 W/m 7,7 km/h (2 Bft)
22.03.2014 18:14 6,6 C 4,4 C 91 % 1002,1 hPa 0,0 l/m 0 min 0 min 0,0 UV-I 39 W/m 15,4 km/h (3 Bft)
22.03.2014 18:16 6,6 C 4,4 C 91 % 1002,2 hPa 0,0 l/m 0 min 0 min 0,0 UV-I 32 W/m 2,6 km/h (1 Bft)
22.03.2014 18:18 6,6 C 4,4 C 91 % 1002,2 hPa 0,0 l/m 0 min 0 min 0,0 UV-I 32 W/m 5,1 km/h (1 Bft)
22.03.2014 18:20 6,5 C 4,4 C 91 % 1002,1 hPa 0,0 l/m 0 min 0 min 0,0 UV-I 26 W/m 2,6 km/h (1 Bft)
22.03.2014 18:22 6,4 C 4,4 C 91 % 1002,2 hPa 0,0 l/m 0 min 0 min 0,0 UV-I 18 W/m 2,6 km/h (1 Bft)
22.03.2014 18:24 6,4 C 4,4 C 91 % 1002,2 hPa 0,0 l/m 0 min 0 min 0,0 UV-I 19 W/m 7,7 km/h (2 Bft)
22.03.2014 18:26 6,4 C 4,4 C 91 % 1002,1 hPa 0,0 l/m 0 min 0 min 0,0 UV-I 16 W/m 7,7 km/h (2 Bft)
22.03.2014 18:28 6,4 C 4,4 C 91 % 1002,1 hPa 0,0 l/m 0 min 0 min 0,0 UV-I 14 W/m 12,9 km/h (3 Bft)
22.03.2014 18:30 6,4 C 4,4 C 91 % 1002,1 hPa 0,0 l/m 0 min 0 min 0,0 UV-I 14 W/m 12,9 km/h (3 Bft)
22.03.2014 18:32 6,3 C 4,4 C 91 % 1002,1 hPa 0,0 l/m 0 min 0 min 0,0 UV-I 12 W/m 7,7 km/h (2 Bft)
22.03.2014 18:34 6,3 C 4,4 C 91 % 1002,1 hPa 0,0 l/m 0 min 0 min 0,0 UV-I 11 W/m 5,1 km/h (1 Bft)
22.03.2014 18:36 6,3 C 4,4 C 91 % 1002,2 hPa 0,0 l/m 0 min 0 min 0,0 UV-I 11 W/m 7,7 km/h (2 Bft)
22.03.2014 18:38 6,2 C 4,4 C 91 % 1002,2 hPa 0,0 l/m 0 min 0 min 0,0 UV-I 9 W/m 0,0 km/h (0 Bft)
22.03.2014 18:40 6,2 C 4,4 C 91 % 1002,3 hPa 0,0 l/m 0 min 0 min 0,0 UV-I 9 W/m 10,3 km/h (2 Bft)
22.03.2014 18:42 6,2 C 4,4 C 91 % 1002,3 hPa 0,0 l/m 0 min 0 min 0,0 UV-I 7 W/m 12,9 km/h (3 Bft)
22.03.2014 18:44 6,2 C 4,4 C 91 % 1002,4 hPa 0,0 l/m 0 min 0 min 0,0 UV-I 7 W/m 5,1 km/h (1 Bft)
22.03.2014 18:46 6,1 C 4,4 C 91 % 1002,4 hPa 0,0 l/m 0 min 0 min 0,0 UV-I 7 W/m 5,1 km/h (1 Bft)
22.03.2014 18:48 6,1 C 3,9 C 91 % 1002,4 hPa 0,0 l/m 0 min 0 min 0,0 UV-I 5 W/m 0,0 km/h (0 Bft)
22.03.2014 18:50 6,0 C 3,9 C 91 % 1002,4 hPa 0,0 l/m 0 min 0 min 0,0 UV-I 5 W/m 2,6 km/h (1 Bft)
22.03.2014 18:52 5,9 C 3,9 C 91 % 1002,4 hPa 0,0 l/m 0 min 0 min 0,0 UV-I 5 W/m 0,0 km/h (0 Bft)
22.03.2014 18:54 5,9 C 3,9 C 91 % 1002,4 hPa 0,0 l/m 0 min 0 min 0,0 UV-I 0 W/m 2,6 km/h (1 Bft)
22.03.2014 18:56 5,9 C 3,9 C 91 % 1002,4 hPa 0,0 l/m 0 min 0 min 0,0 UV-I 0 W/m 0,0 km/h (0 Bft)
22.03.2014 18:58 5,8 C 3,9 C 91 % 1002,4 hPa 0,0 l/m 0 min 0 min 0,0 UV-I 0 W/m 2,6 km/h (1 Bft)
22.03.2014 19:00 5,8 C 3,9 C 92 % 1002,4 hPa 0,0 l/m 0 min 0 min 0,0 UV-I 0 W/m 2,6 km/h (1 Bft)
22.03.2014 19:02 5,7 C 3,9 C 92 % 1002,4 hPa 0,0 l/m 0 min 0 min 0,0 UV-I 0 W/m 7,7 km/h (2 Bft)
22.03.2014 19:06 5,7 C 3,9 C 92 % 1002,5 hPa 0,0 l/m 0 min 0 min 0,0 UV-I 0 W/m 12,9 km/h (3 Bft)
22.03.2014 19:08 5,7 C 3,9 C 92 % 1002,4 hPa 0,0 l/m 0 min 0 min 0,0 UV-I 0 W/m 0,0 km/h (0 Bft)
22.03.2014 19:10 5,7 C 3,9 C 92 % 1002,5 hPa 0,0 l/m 0 min 0 min 0,0 UV-I 0 W/m 0,0 km/h (0 Bft)
22.03.2014 19:12 5,6 C 3,9 C 92 % 1002,5 hPa 0,0 l/m 0 min 0 min 0,0 UV-I 0 W/m 0,0 km/h (0 Bft)
22.03.2014 19:14 5,6 C 3,9 C 93 % 1002,5 hPa 0,0 l/m 0 min 0 min 0,0 UV-I 0 W/m 7,7 km/h (2 Bft)
22.03.2014 19:16 5,6 C 3,9 C 93 % 1002,6 hPa 0,0 l/m 0 min 0 min 0,0 UV-I 0 W/m 0,0 km/h (0 Bft)
22.03.2014 19:18 5,6 C 3,9 C 93 % 1002,6 hPa 0,0 l/m 0 min 0 min 0,0 UV-I 0 W/m 0,0 km/h (0 Bft)
22.03.2014 19:20 5,6 C 3,9 C 93 % 1002,6 hPa 0,0 l/m 0 min 0 min 0,0 UV-I 0 W/m 2,6 km/h (1 Bft)
22.03.2014 19:22 5,6 C 3,9 C 93 % 1002,6 hPa 0,0 l/m 0 min 0 min 0,0 UV-I 0 W/m 10,3 km/h (2 Bft)
22.03.2014 19:24 5,6 C 3,9 C 93 % 1002,7 hPa 0,0 l/m 0 min 0 min 0,0 UV-I 0 W/m 5,1 km/h (1 Bft)
22.03.2014 19:26 5,5 C 3,9 C 93 % 1002,6 hPa 0,0 l/m 0 min 0 min 0,0 UV-I 0 W/m 0,0 km/h (0 Bft)
22.03.2014 19:28 5,5 C 3,9 C 93 % 1002,6 hPa 0,0 l/m 0 min 0 min 0,0 UV-I 0 W/m 5,1 km/h (1 Bft)
22.03.2014 19:30 5,4 C 3,9 C 93 % 1002,6 hPa 0,0 l/m 0 min 0 min 0,0 UV-I 0 W/m 0,0 km/h (0 Bft)
22.03.2014 19:32 5,4 C 3,9 C 93 % 1002,6 hPa 0,0 l/m 0 min 0 min 0,0 UV-I 0 W/m 0,0 km/h (0 Bft)
22.03.2014 19:34 5,4 C 3,9 C 93 % 1002,6 hPa 0,0 l/m 0 min 0 min 0,0 UV-I 0 W/m 0,0 km/h (0 Bft)
22.03.2014 19:36 5,3 C 3,3 C 93 % 1002,6 hPa 0,0 l/m 0 min 0 min 0,0 UV-I 0 W/m 0,0 km/h (0 Bft)
22.03.2014 19:38 5,3 C 3,3 C 93 % 1002,7 hPa 0,0 l/m 0 min 0 min 0,0 UV-I 0 W/m 2,6 km/h (1 Bft)
22.03.2014 19:40 5,3 C 3,3 C 93 % 1002,7 hPa 0,0 l/m 0 min 0 min 0,0 UV-I 0 W/m 0,0 km/h (0 Bft)
22.03.2014 19:42 5,3 C 3,3 C 93 % 1002,6 hPa 0,0 l/m 0 min 0 min 0,0 UV-I 0 W/m 0,0 km/h (0 Bft)
22.03.2014 19:44 5,2 C 3,3 C 93 % 1002,6 hPa 0,0 l/m 0 min 0 min 0,0 UV-I 0 W/m 2,6 km/h (1 Bft)
22.03.2014 19:46 5,2 C 3,3 C 94 % 1002,6 hPa 0,0 l/m 0 min 0 min 0,0 UV-I 0 W/m 0,0 km/h (0 Bft)
22.03.2014 19:48 5,2 C 3,3 C 94 % 1002,7 hPa 0,0 l/m 0 min 0 min 0,0 UV-I 0 W/m 7,7 km/h (2 Bft)
22.03.2014 19:50 5,2 C 3,3 C 94 % 1002,7 hPa 0,0 l/m 0 min 0 min 0,0 UV-I 0 W/m 0,0 km/h (0 Bft)
22.03.2014 19:52 5,2 C 3,3 C 94 % 1002,8 hPa 0,0 l/m 0 min 0 min 0,0 UV-I 0 W/m 0,0 km/h (0 Bft)
22.03.2014 19:54 5,1 C 3,3 C 94 % 1002,8 hPa 0,0 l/m 0 min 0 min 0,0 UV-I 0 W/m 0,0 km/h (0 Bft)
22.03.2014 19:56 5,1 C 3,3 C 94 % 1002,8 hPa 0,0 l/m 0 min 0 min 0,0 UV-I 0 W/m 2,6 km/h (1 Bft)
22.03.2014 19:58 5,1 C 3,3 C 94 % 1002,8 hPa 0,0 l/m 0 min 0 min 0,0 UV-I 0 W/m 0,0 km/h (0 Bft)
22.03.2014 20:00 5,0 C 3,3 C 94 % 1002,9 hPa 0,0 l/m 0 min 0 min 0,0 UV-I 0 W/m 0,0 km/h (0 Bft)
22.03.2014 20:02 5,0 C 3,3 C 94 % 1002,9 hPa 0,0 l/m 0 min 0 min 0,0 UV-I 0 W/m 2,6 km/h (1 Bft)
22.03.2014 20:06 4,9 C 3,3 C 94 % 1002,9 hPa 0,0 l/m 0 min 0 min 0,0 UV-I 0 W/m 0,0 km/h (0 Bft)
22.03.2014 20:08 4,9 C 3,3 C 94 % 1003,0 hPa 0,0 l/m 0 min 0 min 0,0 UV-I 0 W/m 0,0 km/h (0 Bft)
22.03.2014 20:10 4,8 C 3,3 C 94 % 1003,0 hPa 0,0 l/m 0 min 0 min 0,0 UV-I 0 W/m 0,0 km/h (0 Bft)
22.03.2014 20:12 4,8 C 3,3 C 94 % 1003,0 hPa 0,0 l/m 0 min 0 min 0,0 UV-I 0 W/m 0,0 km/h (0 Bft)
22.03.2014 20:14 4,7 C 2,8 C 94 % 1003,0 hPa 0,0 l/m 0 min 0 min 0,0 UV-I 0 W/m 0,0 km/h (0 Bft)
22.03.2014 20:16 4,6 C 2,8 C 94 % 1003,0 hPa 0,0 l/m 0 min 0 min 0,0 UV-I 0 W/m 0,0 km/h (0 Bft)
22.03.2014 20:18 4,6 C 2,8 C 94 % 1003,0 hPa 0,0 l/m 0 min 0 min 0,0 UV-I 0 W/m 0,0 km/h (0 Bft)
22.03.2014 20:20 4,5 C 2,8 C 94 % 1003,1 hPa 0,0 l/m 0 min 0 min 0,0 UV-I 0 W/m 0,0 km/h (0 Bft)
22.03.2014 20:22 4,4 C 2,8 C 94 % 1003,1 hPa 0,0 l/m 0 min 0 min 0,0 UV-I 0 W/m 0,0 km/h (0 Bft)
22.03.2014 20:24 4,4 C 2,8 C 94 % 1003,0 hPa 0,0 l/m 0 min 0 min 0,0 UV-I 0 W/m 5,1 km/h (1 Bft)
22.03.2014 20:26 4,4 C 2,8 C 94 % 1003,1 hPa 0,0 l/m 0 min 0 min 0,0 UV-I 0 W/m 0,0 km/h (0 Bft)
22.03.2014 20:28 4,3 C 2,8 C 94 % 1003,1 hPa 0,0 l/m 0 min 0 min 0,0 UV-I 0 W/m 0,0 km/h (0 Bft)
22.03.2014 20:30 4,3 C 2,8 C 94 % 1003,1 hPa 0,0 l/m 0 min 0 min 0,0 UV-I 0 W/m 2,6 km/h (1 Bft)
22.03.2014 20:32 4,3 C 2,8 C 94 % 1003,2 hPa 0,0 l/m 0 min 0 min 0,0 UV-I 0 W/m 0,0 km/h (0 Bft)
22.03.2014 20:34 4,2 C 2,8 C 95 % 1003,2 hPa 0,0 l/m 0 min 0 min 0,0 UV-I 0 W/m 5,1 km/h (1 Bft)
22.03.2014 20:36 4,2 C 2,8 C 95 % 1003,2 hPa 0,0 l/m 0 min 0 min 0,0 UV-I 0 W/m 5,1 km/h (1 Bft)
22.03.2014 20:38 4,2 C 2,8 C 95 % 1003,3 hPa 0,0 l/m 0 min 0 min 0,0 UV-I 0 W/m 0,0 km/h (0 Bft)
22.03.2014 20:40 4,2 C 2,8 C 94 % 1003,3 hPa 0,0 l/m 0 min 0 min 0,0 UV-I 0 W/m 12,9 km/h (3 Bft)
22.03.2014 20:42 4,2 C 2,8 C 95 % 1003,2 hPa 0,0 l/m 0 min 0 min 0,0 UV-I 0 W/m 12,9 km/h (3 Bft)
22.03.2014 20:44 4,2 C 2,8 C 95 % 1003,2 hPa 0,0 l/m 0 min 0 min 0,0 UV-I 0 W/m 5,1 km/h (1 Bft)
22.03.2014 20:46 4,2 C 2,8 C 95 % 1003,3 hPa 0,0 l/m 0 min 0 min 0,0 UV-I 0 W/m 0,0 km/h (0 Bft)
22.03.2014 20:48 4,2 C 2,8 C 95 % 1003,2 hPa 0,0 l/m 0 min 0 min 0,0 UV-I 0 W/m 7,7 km/h (2 Bft)
22.03.2014 20:50 4,2 C 2,8 C 95 % 1003,2 hPa 0,0 l/m 0 min 0 min 0,0 UV-I 0 W/m 5,1 km/h (1 Bft)
22.03.2014 20:52 4,2 C 2,8 C 95 % 1003,2 hPa 0,0 l/m 0 min 0 min 0,0 UV-I 0 W/m 0,0 km/h (0 Bft)
22.03.2014 20:54 4,2 C 2,8 C 95 % 1003,2 hPa 0,0 l/m 0 min 0 min 0,0 UV-I 0 W/m 2,6 km/h (1 Bft)
22.03.2014 20:56 4,2 C 2,8 C 95 % 1003,1 hPa 0,0 l/m 0 min 0 min 0,0 UV-I 0 W/m 0,0 km/h (0 Bft)
22.03.2014 20:58 4,1 C 2,8 C 95 % 1003,2 hPa 0,0 l/m 0 min 0 min 0,0 UV-I 0 W/m 5,1 km/h (1 Bft)
22.03.2014 21:00 4,2 C 2,8 C 95 % 1003,2 hPa 0,0 l/m 0 min 0 min 0,0 UV-I 0 W/m 7,7 km/h (2 Bft)
22.03.2014 21:02 4,2 C 2,8 C 95 % 1003,2 hPa 0,0 l/m 0 min 0 min 0,0 UV-I 0 W/m 5,1 km/h (1 Bft)
22.03.2014 21:06 4,1 C 2,8 C 95 % 1003,1 hPa 0,0 l/m 0 min 0 min 0,0 UV-I 0 W/m 0,0 km/h (0 Bft)
22.03.2014 21:08 4,1 C 2,8 C 95 % 1003,2 hPa 0,0 l/m 0 min 0 min 0,0 UV-I 0 W/m 5,1 km/h (1 Bft)
22.03.2014 21:10 4,1 C 2,8 C 95 % 1003,2 hPa 0,0 l/m 0 min 0 min 0,0 UV-I 0 W/m 0,0 km/h (0 Bft)
22.03.2014 21:12 4,1 C 2,8 C 95 % 1003,2 hPa 0,0 l/m 0 min 0 min 0,0 UV-I 0 W/m 5,1 km/h (1 Bft)
22.03.2014 21:14 4,1 C 2,8 C 95 % 1003,1 hPa 0,0 l/m 0 min 0 min 0,0 UV-I 0 W/m 0,0 km/h (0 Bft)
22.03.2014 21:16 4,1 C 2,8 C 95 % 1003,1 hPa 0,0 l/m 0 min 0 min 0,0 UV-I 0 W/m 0,0 km/h (0 Bft)
22.03.2014 21:18 4,1 C 2,8 C 95 % 1003,1 hPa 0,0 l/m 0 min 0 min 0,0 UV-I 0 W/m 2,6 km/h (1 Bft)
22.03.2014 21:20 4,1 C 2,8 C 95 % 1003,2 hPa 0,0 l/m 0 min 0 min 0,0 UV-I 0 W/m 5,1 km/h (1 Bft)
22.03.2014 21:22 4,1 C 2,8 C 95 % 1003,1 hPa 0,0 l/m 0 min 0 min 0,0 UV-I 0 W/m 0,0 km/h (0 Bft)
22.03.2014 21:24 4,0 C 2,8 C 95 % 1003,2 hPa 0,0 l/m 0 min 0 min 0,0 UV-I 0 W/m 0,0 km/h (0 Bft)
22.03.2014 21:26 4,0 C 2,2 C 95 % 1003,2 hPa 0,0 l/m 0 min 0 min 0,0 UV-I 0 W/m 0,0 km/h (0 Bft)
22.03.2014 21:28 4,0 C 2,2 C 95 % 1003,3 hPa 0,0 l/m 0 min 0 min 0,0 UV-I 0 W/m 0,0 km/h (0 Bft)
22.03.2014 21:30 4,0 C 2,2 C 96 % 1003,3 hPa 0,0 l/m 0 min 0 min 0,0 UV-I 0 W/m 0,0 km/h (0 Bft)
22.03.2014 21:32 3,9 C 2,2 C 96 % 1003,3 hPa 0,0 l/m 0 min 0 min 0,0 UV-I 0 W/m 0,0 km/h (0 Bft)
22.03.2014 21:34 3,9 C 2,2 C 96 % 1003,3 hPa 0,0 l/m 0 min 0 min 0,0 UV-I 0 W/m 0,0 km/h (0 Bft)
22.03.2014 21:36 3,9 C 2,2 C 96 % 1003,2 hPa 0,0 l/m 0 min 0 min 0,0 UV-I 0 W/m 2,6 km/h (1 Bft)
22.03.2014 21:38 3,9 C 2,2 C 96 % 1003,2 hPa 0,0 l/m 0 min 0 min 0,0 UV-I 0 W/m 2,6 km/h (1 Bft)
22.03.2014 21:40 3,9 C 2,2 C 96 % 1003,1 hPa 0,0 l/m 0 min 0 min 0,0 UV-I 0 W/m 0,0 km/h (0 Bft)
22.03.2014 21:42 3,9 C 2,2 C 96 % 1003,1 hPa 0,0 l/m 0 min 0 min 0,0 UV-I 0 W/m 0,0 km/h (0 Bft)
22.03.2014 21:44 3,9 C 2,2 C 96 % 1003,1 hPa 0,0 l/m 0 min 0 min 0,0 UV-I 0 W/m 0,0 km/h (0 Bft)
22.03.2014 21:46 3,9 C 2,2 C 96 % 1003,2 hPa 0,0 l/m 0 min 0 min 0,0 UV-I 0 W/m 0,0 km/h (0 Bft)
22.03.2014 21:48 3,9 C 2,2 C 96 % 1003,1 hPa 0,0 l/m 0 min 0 min 0,0 UV-I 0 W/m 0,0 km/h (0 Bft)
22.03.2014 21:50 3,9 C 2,2 C 96 % 1003,2 hPa 0,0 l/m 0 min 0 min 0,0 UV-I 0 W/m 2,6 km/h (1 Bft)
22.03.2014 21:52 3,8 C 2,2 C 96 % 1003,1 hPa 0,0 l/m 0 min 0 min 0,0 UV-I 0 W/m 0,0 km/h (0 Bft)
22.03.2014 21:54 3,8 C 2,2 C 96 % 1003,1 hPa 0,0 l/m 0 min 0 min 0,0 UV-I 0 W/m 0,0 km/h (0 Bft)
22.03.2014 21:56 3,8 C 2,2 C 96 % 1003,1 hPa 0,0 l/m 0 min 0 min 0,0 UV-I 0 W/m 0,0 km/h (0 Bft)
22.03.2014 21:58 3,7 C 2,2 C 96 % 1003,1 hPa 0,0 l/m 0 min 0 min 0,0 UV-I 0 W/m 0,0 km/h (0 Bft)
22.03.2014 22:00 3,7 C 2,2 C 96 % 1003,2 hPa 0,0 l/m 0 min 0 min 0,0 UV-I 0 W/m 2,6 km/h (1 Bft)
22.03.2014 22:02 3,7 C 2,2 C 96 % 1003,1 hPa 0,0 l/m 0 min 0 min 0,0 UV-I 0 W/m 0,0 km/h (0 Bft)
22.03.2014 22:06 3,7 C 2,2 C 96 % 1003,1 hPa 0,0 l/m 0 min 0 min 0,0 UV-I 0 W/m 0,0 km/h (0 Bft)
22.03.2014 22:08 3,7 C 2,2 C 96 % 1003,1 hPa 0,0 l/m 0 min 0 min 0,0 UV-I 0 W/m 2,6 km/h (1 Bft)
22.03.2014 22:10 3,7 C 2,2 C 96 % 1003,1 hPa 0,0 l/m 0 min 0 min 0,0 UV-I 0 W/m 0,0 km/h (0 Bft)
22.03.2014 22:12 3,7 C 2,2 C 96 % 1003,1 hPa 0,0 l/m 0 min 0 min 0,0 UV-I 0 W/m 0,0 km/h (0 Bft)
22.03.2014 22:14 3,6 C 2,2 C 96 % 1003,2 hPa 0,0 l/m 0 min 0 min 0,0 UV-I 0 W/m 5,1 km/h (1 Bft)
22.03.2014 22:16 3,6 C 2,2 C 96 % 1003,1 hPa 0,0 l/m 0 min 0 min 0,0 UV-I 0 W/m 0,0 km/h (0 Bft)
22.03.2014 22:18 3,6 C 2,2 C 96 % 1003,2 hPa 0,0 l/m 0 min 0 min 0,0 UV-I 0 W/m 0,0 km/h (0 Bft)
22.03.2014 22:20 3,6 C 2,2 C 96 % 1003,3 hPa 0,0 l/m 0 min 0 min 0,0 UV-I 0 W/m 0,0 km/h (0 Bft)
22.03.2014 22:22 3,6 C 2,2 C 96 % 1003,3 hPa 0,0 l/m 0 min 0 min 0,0 UV-I 0 W/m 0,0 km/h (0 Bft)
22.03.2014 22:24 3,6 C 2,2 C 96 % 1003,3 hPa 0,0 l/m 0 min 0 min 0,0 UV-I 0 W/m 0,0 km/h (0 Bft)
22.03.2014 22:26 3,6 C 2,2 C 96 % 1003,3 hPa 0,0 l/m 0 min 0 min 0,0 UV-I 0 W/m 0,0 km/h (0 Bft)
22.03.2014 22:28 3,7 C 2,2 C 96 % 1003,3 hPa 0,0 l/m 0 min 0 min 0,0 UV-I 0 W/m 7,7 km/h (2 Bft)
22.03.2014 22:30 3,7 C 2,2 C 96 % 1003,3 hPa 0,0 l/m 0 min 0 min 0,0 UV-I 0 W/m 5,1 km/h (1 Bft)
22.03.2014 22:32 3,7 C 2,8 C 96 % 1003,3 hPa 0,0 l/m 0 min 0 min 0,0 UV-I 0 W/m 5,1 km/h (1 Bft)
22.03.2014 22:34 3,7 C 2,8 C 96 % 1003,3 hPa 0,0 l/m 0 min 0 min 0,0 UV-I 0 W/m 5,1 km/h (1 Bft)
22.03.2014 22:36 3,7 C 2,8 C 96 % 1003,4 hPa 0,0 l/m 0 min 0 min 0,0 UV-I 0 W/m 7,7 km/h (2 Bft)
22.03.2014 22:38 3,8 C 2,8 C 96 % 1003,3 hPa 0,0 l/m 0 min 0 min 0,0 UV-I 0 W/m 0,0 km/h (0 Bft)
22.03.2014 22:40 3,8 C 2,8 C 96 % 1003,4 hPa 0,0 l/m 0 min 0 min 0,0 UV-I 0 W/m 5,1 km/h (1 Bft)
22.03.2014 22:42 3,8 C 2,8 C 96 % 1003,4 hPa 0,0 l/m 0 min 0 min 0,0 UV-I 0 W/m 7,7 km/h (2 Bft)
22.03.2014 22:44 3,8 C 2,8 C 96 % 1003,3 hPa 0,0 l/m 0 min 0 min 0,0 UV-I 0 W/m 5,1 km/h (1 Bft)
22.03.2014 22:46 3,8 C 2,8 C 96 % 1003,4 hPa 0,0 l/m 0 min 0 min 0,0 UV-I 0 W/m 7,7 km/h (2 Bft)
22.03.2014 22:48 3,8 C 2,8 C 96 % 1003,4 hPa 0,0 l/m 0 min 0 min 0,0 UV-I 0 W/m 5,1 km/h (1 Bft)
22.03.2014 22:50 3,8 C 2,8 C 96 % 1003,4 hPa 0,0 l/m 0 min 0 min 0,0 UV-I 0 W/m 2,6 km/h (1 Bft)
22.03.2014 22:52 3,8 C 2,8 C 96 % 1003,4 hPa 0,0 l/m 0 min 0 min 0,0 UV-I 0 W/m 7,7 km/h (2 Bft)
22.03.2014 22:54 3,8 C 2,8 C 96 % 1003,5 hPa 0,0 l/m 0 min 0 min 0,0 UV-I 0 W/m 0,0 km/h (0 Bft)
22.03.2014 22:56 3,8 C 2,8 C 96 % 1003,6 hPa 0,0 l/m 0 min 0 min 0,0 UV-I 0 W/m 10,3 km/h (2 Bft)
22.03.2014 22:58 3,8 C 2,8 C 96 % 1003,7 hPa 0,0 l/m 0 min 0 min 0,0 UV-I 0 W/m 7,7 km/h (2 Bft)
22.03.2014 23:00 3,9 C 2,8 C 96 % 1003,7 hPa 0,0 l/m 0 min 0 min 0,0 UV-I 0 W/m 5,1 km/h (1 Bft)
22.03.2014 23:02 3,9 C 2,8 C 96 % 1003,7 hPa 0,0 l/m 0 min 0 min 0,0 UV-I 0 W/m 0,0 km/h (0 Bft)
22.03.2014 23:06 4,1 C 3,3 C 96 % 1003,8 hPa 0,0 l/m 0 min 0 min 0,0 UV-I 0 W/m 12,9 km/h (3 Bft)
22.03.2014 23:08 4,1 C 3,3 C 96 % 1003,8 hPa 0,0 l/m 0 min 0 min 0,0 UV-I 0 W/m 10,3 km/h (2 Bft)
22.03.2014 23:10 4,1 C 3,3 C 96 % 1003,8 hPa 0,0 l/m 0 min 0 min 0,0 UV-I 0 W/m 12,9 km/h (3 Bft)
22.03.2014 23:12 4,2 C 3,3 C 96 % 1003,8 hPa 0,0 l/m 0 min 0 min 0,0 UV-I 0 W/m 5,1 km/h (1 Bft)
22.03.2014 23:14 4,2 C 3,3 C 96 % 1003,8 hPa 0,0 l/m 0 min 0 min 0,0 UV-I 0 W/m 7,7 km/h (2 Bft)
22.03.2014 23:16 4,2 C 3,3 C 96 % 1003,8 hPa 0,0 l/m 0 min 0 min 0,0 UV-I 0 W/m 0,0 km/h (0 Bft)
22.03.2014 23:18 4,3 C 3,3 C 96 % 1003,8 hPa 0,0 l/m 0 min 0 min 0,0 UV-I 0 W/m 2,6 km/h (1 Bft)
22.03.2014 23:20 4,3 C 3,3 C 96 % 1003,8 hPa 0,0 l/m 0 min 0 min 0,0 UV-I 0 W/m 7,7 km/h (2 Bft)
22.03.2014 23:22 4,3 C 3,3 C 96 % 1003,8 hPa 0,0 l/m 0 min 0 min 0,0 UV-I 0 W/m 0,0 km/h (0 Bft)
22.03.2014 23:24 4,3 C 3,3 C 96 % 1003,8 hPa 0,0 l/m 0 min 0 min 0,0 UV-I 0 W/m 0,0 km/h (0 Bft)
22.03.2014 23:26 4,4 C 3,3 C 96 % 1003,7 hPa 0,0 l/m 0 min 0 min 0,0 UV-I 0 W/m 0,0 km/h (0 Bft)
22.03.2014 23:28 4,4 C 3,3 C 96 % 1003,8 hPa 0,0 l/m 0 min 0 min 0,0 UV-I 0 W/m 0,0 km/h (0 Bft)
22.03.2014 23:30 4,4 C 3,3 C 96 % 1003,8 hPa 0,0 l/m 0 min 0 min 0,0 UV-I 0 W/m 0,0 km/h (0 Bft)
22.03.2014 23:32 4,4 C 3,3 C 96 % 1003,7 hPa 0,0 l/m 0 min 0 min 0,0 UV-I 0 W/m 2,6 km/h (1 Bft)
22.03.2014 23:34 4,4 C 3,3 C 96 % 1003,6 hPa 0,0 l/m 0 min 0 min 0,0 UV-I 0 W/m 7,7 km/h (2 Bft)
22.03.2014 23:36 4,4 C 3,3 C 96 % 1003,6 hPa 0,0 l/m 0 min 0 min 0,0 UV-I 0 W/m 7,7 km/h (2 Bft)
22.03.2014 23:38 4,4 C 3,3 C 96 % 1003,5 hPa 0,0 l/m 0 min 0 min 0,0 UV-I 0 W/m 0,0 km/h (0 Bft)
22.03.2014 23:40 4,5 C 3,3 C 96 % 1003,5 hPa 0,0 l/m 0 min 0 min 0,0 UV-I 0 W/m 0,0 km/h (0 Bft)
22.03.2014 23:42 4,5 C 3,3 C 96 % 1003,4 hPa 0,0 l/m 0 min 0 min 0,0 UV-I 0 W/m 0,0 km/h (0 Bft)
22.03.2014 23:44 4,5 C 3,3 C 96 % 1003,4 hPa 0,0 l/m 0 min 0 min 0,0 UV-I 0 W/m 0,0 km/h (0 Bft)
22.03.2014 23:46 4,5 C 3,3 C 96 % 1003,4 hPa 0,0 l/m 0 min 0 min 0,0 UV-I 0 W/m 0,0 km/h (0 Bft)
22.03.2014 23:48 4,5 C 3,3 C 95 % 1003,5 hPa 0,0 l/m 0 min 0 min 0,0 UV-I 0 W/m 0,0 km/h (0 Bft)
22.03.2014 23:50 4,5 C 3,3 C 95 % 1003,6 hPa 0,0 l/m 0 min 0 min 0,0 UV-I 0 W/m 0,0 km/h (0 Bft)
22.03.2014 23:52 4,5 C 2,8 C 95 % 1003,7 hPa 0,0 l/m 0 min 0 min 0,0 UV-I 0 W/m 0,0 km/h (0 Bft)
22.03.2014 23:54 4,5 C 2,8 C 95 % 1003,8 hPa 0,0 l/m 0 min 0 min 0,0 UV-I 0 W/m 0,0 km/h (0 Bft)
22.03.2014 23:56 4,5 C 2,8 C 95 % 1003,7 hPa 0,0 l/m 0 min 0 min 0,0 UV-I 0 W/m 0,0 km/h (0 Bft)
22.03.2014 23:58 4,5 C 2,8 C 95 % 1003,7 hPa 0,0 l/m 0 min 0 min 0,0 UV-I 0 W/m 0,0 km/h (0 Bft)
_ Min-Zeit 22:14 21:26 11:54 14:52 - - - - - 00:00
Minimum _ 3,6 C 2,2 C 66 % 1001,0 hPa - - - - - 0,0 km/h (0 Bft)
_ Max-Zeit 11:40 11:40 05:30 00:00 02:18 08:58 02:00 11:34 11:34 10:06
Maximum _ 11,7 C 11,7 C 96 % 1007,8 hPa 0,2 l/m 2 min 2 min 1,6 UV-I 707 W/m 38,6 km/h
S (5 Bft)
Durchschnitt _ 6,8 C 5,5 C 89 % 1003,1 hPa #2,8 l/m #2:32 h #2:26 h 0,8 UV-I 161 W/m 7,3 km/h (2 Bft)
© 2014 W. Hausmann